<?xml version="1.0" encoding="UTF-8" standalone="no" ?>
<gpx xmlns="http://www.topografix.com/GPX/1/1" xmlns:xsi="http://www.w3.org/2001/XMLSchema-instance" xsi:schemaLocation="http://www.topografix.com/GPX/1/1 http://www.topografix.com/GPX/1/1/gpx.xsd" version="1.1" creator="VisuGPX - https://www.visugpx.com">
  <metadata>
    <name>Saint Clement Titis 25 kms </name>
    <desc><![CDATA[Rando au depart de saint clement ,circuit roulant quelques arbres couches au km20]]></desc>
  </metadata>
  <trk>
    <name><![CDATA[2013-04-06 14:13]]></name>
    <desc><![CDATA[<h1>OruxMaps</h1><br /><hr align="center" width="480" style="height: 2px; width: 517px"/><h2>Nom: 2013-04-06 14:13</h2><br /><p>Temps de départ: 04/06/2013 14:14</p><p>Temps d'arrivée: 04/06/2013 17:17</p><p>Distance: 23,2 km (03:03)</p><p>Temps déplacement: 01:30</p><p>Vitesse moyenne: 7,6 km/h</p><p>Vitesse moyenne: 15,4 km/h</p><p>Vitess Max.: 46 km/h</p><p>Altitude minimale: 475 m</p><p>Altitude maximale: 894 m</p><p>Vitesse d'élévation: 557,6 m/h</p><p>Vitesse de descente: -758,3 m/h</p><p>Gain Altitude: 783 m</p><p>Perte Altitude: -836 m</p><p>Temps d'élévation: 01:24</p><p>Temps de descente: 01:06</p><hr align="center" width="480" style="height: 2px; width: 517px"/>]]></desc>
    <trkseg>
      <trkpt lat="46.06856" lon="3.70209">
        <ele>530.05</ele>
        <time>2013-04-06T12:14:22Z</time>
      </trkpt>
      <trkpt lat="46.06871" lon="3.70224">
        <ele>519.73</ele>
        <time>2013-04-06T12:14:38Z</time>
      </trkpt>
      <trkpt lat="46.06891" lon="3.70218">
        <ele>514.96</ele>
        <time>2013-04-06T12:14:46Z</time>
      </trkpt>
      <trkpt lat="46.06911" lon="3.70211">
        <ele>510.93</ele>
        <time>2013-04-06T12:14:53Z</time>
      </trkpt>
      <trkpt lat="46.06929" lon="3.70207">
        <ele>508.04</ele>
        <time>2013-04-06T12:14:59Z</time>
      </trkpt>
      <trkpt lat="46.06948" lon="3.70203">
        <ele>505.48</ele>
        <time>2013-04-06T12:15:05Z</time>
      </trkpt>
      <trkpt lat="46.06969" lon="3.70198">
        <ele>502.96</ele>
        <time>2013-04-06T12:15:11Z</time>
      </trkpt>
      <trkpt lat="46.06989" lon="3.70194">
        <ele>500.6</ele>
        <time>2013-04-06T12:15:17Z</time>
      </trkpt>
      <trkpt lat="46.07009" lon="3.7019">
        <ele>498.34</ele>
        <time>2013-04-06T12:15:23Z</time>
      </trkpt>
      <trkpt lat="46.07029" lon="3.70186">
        <ele>496.73</ele>
        <time>2013-04-06T12:15:28Z</time>
      </trkpt>
      <trkpt lat="46.07049" lon="3.70181">
        <ele>495.18</ele>
        <time>2013-04-06T12:15:34Z</time>
      </trkpt>
      <trkpt lat="46.07067" lon="3.70175">
        <ele>494.45</ele>
        <time>2013-04-06T12:15:39Z</time>
      </trkpt>
      <trkpt lat="46.07087" lon="3.70166">
        <ele>493.77</ele>
        <time>2013-04-06T12:15:44Z</time>
      </trkpt>
      <trkpt lat="46.07105" lon="3.70158">
        <ele>492.83</ele>
        <time>2013-04-06T12:15:50Z</time>
      </trkpt>
      <trkpt lat="46.07123" lon="3.70151">
        <ele>491.78</ele>
        <time>2013-04-06T12:15:56Z</time>
      </trkpt>
      <trkpt lat="46.07142" lon="3.70141">
        <ele>490.52</ele>
        <time>2013-04-06T12:16:02Z</time>
      </trkpt>
      <trkpt lat="46.07162" lon="3.70128">
        <ele>489.29</ele>
        <time>2013-04-06T12:16:08Z</time>
      </trkpt>
      <trkpt lat="46.0718" lon="3.70113">
        <ele>488.25</ele>
        <time>2013-04-06T12:16:14Z</time>
      </trkpt>
      <trkpt lat="46.07197" lon="3.70104">
        <ele>487.72</ele>
        <time>2013-04-06T12:16:19Z</time>
      </trkpt>
      <trkpt lat="46.07214" lon="3.70095">
        <ele>486.82</ele>
        <time>2013-04-06T12:16:25Z</time>
      </trkpt>
      <trkpt lat="46.07231" lon="3.70085">
        <ele>486.16</ele>
        <time>2013-04-06T12:16:31Z</time>
      </trkpt>
      <trkpt lat="46.07249" lon="3.70072">
        <ele>485.41</ele>
        <time>2013-04-06T12:16:37Z</time>
      </trkpt>
      <trkpt lat="46.07267" lon="3.70057">
        <ele>484.51</ele>
        <time>2013-04-06T12:16:42Z</time>
      </trkpt>
      <trkpt lat="46.07285" lon="3.70046">
        <ele>483.34</ele>
        <time>2013-04-06T12:16:47Z</time>
      </trkpt>
      <trkpt lat="46.07306" lon="3.70035">
        <ele>482.16</ele>
        <time>2013-04-06T12:16:52Z</time>
      </trkpt>
      <trkpt lat="46.07324" lon="3.70025">
        <ele>481.01</ele>
        <time>2013-04-06T12:16:57Z</time>
      </trkpt>
      <trkpt lat="46.07341" lon="3.70014">
        <ele>479.9</ele>
        <time>2013-04-06T12:17:02Z</time>
      </trkpt>
      <trkpt lat="46.07359" lon="3.70003">
        <ele>478.79</ele>
        <time>2013-04-06T12:17:08Z</time>
      </trkpt>
      <trkpt lat="46.07377" lon="3.69992">
        <ele>477.77</ele>
        <time>2013-04-06T12:17:14Z</time>
      </trkpt>
      <trkpt lat="46.07397" lon="3.69984">
        <ele>476.77</ele>
        <time>2013-04-06T12:17:20Z</time>
      </trkpt>
      <trkpt lat="46.07414" lon="3.69975">
        <ele>476.59</ele>
        <time>2013-04-06T12:17:26Z</time>
      </trkpt>
      <trkpt lat="46.07432" lon="3.6996">
        <ele>476.56</ele>
        <time>2013-04-06T12:17:32Z</time>
      </trkpt>
      <trkpt lat="46.0745" lon="3.6995">
        <ele>475.73</ele>
        <time>2013-04-06T12:17:38Z</time>
      </trkpt>
      <trkpt lat="46.07469" lon="3.69945">
        <ele>475.6</ele>
        <time>2013-04-06T12:17:43Z</time>
      </trkpt>
      <trkpt lat="46.07488" lon="3.69937">
        <ele>475.56</ele>
        <time>2013-04-06T12:17:48Z</time>
      </trkpt>
      <trkpt lat="46.07506" lon="3.69928">
        <ele>476.13</ele>
        <time>2013-04-06T12:17:53Z</time>
      </trkpt>
      <trkpt lat="46.07524" lon="3.69922">
        <ele>476.93</ele>
        <time>2013-04-06T12:18:00Z</time>
      </trkpt>
      <trkpt lat="46.07543" lon="3.69922">
        <ele>477.47</ele>
        <time>2013-04-06T12:18:07Z</time>
      </trkpt>
      <trkpt lat="46.07561" lon="3.69926">
        <ele>478.66</ele>
        <time>2013-04-06T12:18:14Z</time>
      </trkpt>
      <trkpt lat="46.07579" lon="3.69932">
        <ele>480.5</ele>
        <time>2013-04-06T12:18:23Z</time>
      </trkpt>
      <trkpt lat="46.07595" lon="3.69945">
        <ele>483</ele>
        <time>2013-04-06T12:18:35Z</time>
      </trkpt>
      <trkpt lat="46.07606" lon="3.69967">
        <ele>485.06</ele>
        <time>2013-04-06T12:18:47Z</time>
      </trkpt>
      <trkpt lat="46.07617" lon="3.6999">
        <ele>488.08</ele>
        <time>2013-04-06T12:19:00Z</time>
      </trkpt>
      <trkpt lat="46.07628" lon="3.70012">
        <ele>491.64</ele>
        <time>2013-04-06T12:19:13Z</time>
      </trkpt>
      <trkpt lat="46.07641" lon="3.70033">
        <ele>495.09</ele>
        <time>2013-04-06T12:19:27Z</time>
      </trkpt>
      <trkpt lat="46.07653" lon="3.70055">
        <ele>498.44</ele>
        <time>2013-04-06T12:19:37Z</time>
      </trkpt>
      <trkpt lat="46.07665" lon="3.70078">
        <ele>501.2</ele>
        <time>2013-04-06T12:19:44Z</time>
      </trkpt>
      <trkpt lat="46.07677" lon="3.701">
        <ele>503.1</ele>
        <time>2013-04-06T12:19:52Z</time>
      </trkpt>
      <trkpt lat="46.07686" lon="3.70123">
        <ele>504.89</ele>
        <time>2013-04-06T12:20:02Z</time>
      </trkpt>
      <trkpt lat="46.07698" lon="3.70145">
        <ele>505.52</ele>
        <time>2013-04-06T12:20:13Z</time>
      </trkpt>
      <trkpt lat="46.07708" lon="3.70168">
        <ele>506.51</ele>
        <time>2013-04-06T12:20:25Z</time>
      </trkpt>
      <trkpt lat="46.07706" lon="3.70194">
        <ele>506.55</ele>
        <time>2013-04-06T12:20:41Z</time>
      </trkpt>
      <trkpt lat="46.07696" lon="3.70218">
        <ele>507.48</ele>
        <time>2013-04-06T12:20:51Z</time>
      </trkpt>
      <trkpt lat="46.07692" lon="3.70244">
        <ele>508.41</ele>
        <time>2013-04-06T12:21:00Z</time>
      </trkpt>
      <trkpt lat="46.0769" lon="3.70269">
        <ele>509.41</ele>
        <time>2013-04-06T12:21:09Z</time>
      </trkpt>
      <trkpt lat="46.07689" lon="3.70297">
        <ele>510.51</ele>
        <time>2013-04-06T12:21:22Z</time>
      </trkpt>
      <trkpt lat="46.0769" lon="3.70325">
        <ele>511.49</ele>
        <time>2013-04-06T12:21:32Z</time>
      </trkpt>
      <trkpt lat="46.077" lon="3.70347">
        <ele>511.55</ele>
        <time>2013-04-06T12:21:42Z</time>
      </trkpt>
      <trkpt lat="46.07711" lon="3.7037">
        <ele>511.55</ele>
        <time>2013-04-06T12:21:51Z</time>
      </trkpt>
      <trkpt lat="46.07725" lon="3.70389">
        <ele>510.87</ele>
        <time>2013-04-06T12:22:03Z</time>
      </trkpt>
      <trkpt lat="46.07743" lon="3.70394">
        <ele>510.56</ele>
        <time>2013-04-06T12:22:18Z</time>
      </trkpt>
      <trkpt lat="46.07763" lon="3.70396">
        <ele>511.13</ele>
        <time>2013-04-06T12:22:30Z</time>
      </trkpt>
      <trkpt lat="46.07781" lon="3.70392">
        <ele>513.25</ele>
        <time>2013-04-06T12:22:44Z</time>
      </trkpt>
      <trkpt lat="46.078" lon="3.70385">
        <ele>517.63</ele>
        <time>2013-04-06T12:22:55Z</time>
      </trkpt>
      <trkpt lat="46.07819" lon="3.70383">
        <ele>521.3</ele>
        <time>2013-04-06T12:23:03Z</time>
      </trkpt>
      <trkpt lat="46.07838" lon="3.70381">
        <ele>526.1</ele>
        <time>2013-04-06T12:23:14Z</time>
      </trkpt>
      <trkpt lat="46.07857" lon="3.70379">
        <ele>530.42</ele>
        <time>2013-04-06T12:23:25Z</time>
      </trkpt>
      <trkpt lat="46.07876" lon="3.70385">
        <ele>534.68</ele>
        <time>2013-04-06T12:23:38Z</time>
      </trkpt>
      <trkpt lat="46.07895" lon="3.70394">
        <ele>537.54</ele>
        <time>2013-04-06T12:23:50Z</time>
      </trkpt>
      <trkpt lat="46.07912" lon="3.70404">
        <ele>540.46</ele>
        <time>2013-04-06T12:24:02Z</time>
      </trkpt>
      <trkpt lat="46.07929" lon="3.70417">
        <ele>543.46</ele>
        <time>2013-04-06T12:24:14Z</time>
      </trkpt>
      <trkpt lat="46.07946" lon="3.70426">
        <ele>547.26</ele>
        <time>2013-04-06T12:24:26Z</time>
      </trkpt>
      <trkpt lat="46.07963" lon="3.70437">
        <ele>550.62</ele>
        <time>2013-04-06T12:24:37Z</time>
      </trkpt>
      <trkpt lat="46.0798" lon="3.70447">
        <ele>553.93</ele>
        <time>2013-04-06T12:24:50Z</time>
      </trkpt>
      <trkpt lat="46.08" lon="3.70452">
        <ele>556.31</ele>
        <time>2013-04-06T12:25:02Z</time>
      </trkpt>
      <trkpt lat="46.08018" lon="3.70447">
        <ele>558.19</ele>
        <time>2013-04-06T12:25:14Z</time>
      </trkpt>
      <trkpt lat="46.08037" lon="3.70445">
        <ele>559.9</ele>
        <time>2013-04-06T12:25:26Z</time>
      </trkpt>
      <trkpt lat="46.08057" lon="3.70443">
        <ele>561.19</ele>
        <time>2013-04-06T12:25:35Z</time>
      </trkpt>
      <trkpt lat="46.08075" lon="3.70443">
        <ele>562.35</ele>
        <time>2013-04-06T12:25:45Z</time>
      </trkpt>
      <trkpt lat="46.08093" lon="3.70445">
        <ele>564.08</ele>
        <time>2013-04-06T12:25:57Z</time>
      </trkpt>
      <trkpt lat="46.08111" lon="3.70447">
        <ele>565.47</ele>
        <time>2013-04-06T12:26:11Z</time>
      </trkpt>
      <trkpt lat="46.08131" lon="3.7045">
        <ele>566.93</ele>
        <time>2013-04-06T12:26:23Z</time>
      </trkpt>
      <trkpt lat="46.08149" lon="3.70454">
        <ele>568.19</ele>
        <time>2013-04-06T12:26:32Z</time>
      </trkpt>
      <trkpt lat="46.08167" lon="3.70462">
        <ele>569.81</ele>
        <time>2013-04-06T12:26:39Z</time>
      </trkpt>
      <trkpt lat="46.08184" lon="3.70475">
        <ele>571.24</ele>
        <time>2013-04-06T12:26:47Z</time>
      </trkpt>
      <trkpt lat="46.08198" lon="3.70492">
        <ele>573.99</ele>
        <time>2013-04-06T12:26:59Z</time>
      </trkpt>
      <trkpt lat="46.0821" lon="3.70514">
        <ele>577.32</ele>
        <time>2013-04-06T12:27:17Z</time>
      </trkpt>
      <trkpt lat="46.08212" lon="3.7054">
        <ele>578.51</ele>
        <time>2013-04-06T12:27:30Z</time>
      </trkpt>
      <trkpt lat="46.08212" lon="3.70568">
        <ele>582.14</ele>
        <time>2013-04-06T12:28:51Z</time>
      </trkpt>
      <trkpt lat="46.08208" lon="3.70593">
        <ele>586.55</ele>
        <time>2013-04-06T12:29:00Z</time>
      </trkpt>
      <trkpt lat="46.08208" lon="3.70621">
        <ele>588.79</ele>
        <time>2013-04-06T12:29:08Z</time>
      </trkpt>
      <trkpt lat="46.0821" lon="3.70649">
        <ele>588.58</ele>
        <time>2013-04-06T12:29:16Z</time>
      </trkpt>
      <trkpt lat="46.08217" lon="3.70673">
        <ele>588.56</ele>
        <time>2013-04-06T12:29:23Z</time>
      </trkpt>
      <trkpt lat="46.08229" lon="3.70694">
        <ele>588.55</ele>
        <time>2013-04-06T12:29:32Z</time>
      </trkpt>
      <trkpt lat="46.08243" lon="3.70716">
        <ele>588.55</ele>
        <time>2013-04-06T12:29:42Z</time>
      </trkpt>
      <trkpt lat="46.08257" lon="3.70735">
        <ele>588.55</ele>
        <time>2013-04-06T12:29:52Z</time>
      </trkpt>
      <trkpt lat="46.08272" lon="3.7075">
        <ele>588.09</ele>
        <time>2013-04-06T12:30:00Z</time>
      </trkpt>
      <trkpt lat="46.08285" lon="3.70769">
        <ele>588.96</ele>
        <time>2013-04-06T12:30:09Z</time>
      </trkpt>
      <trkpt lat="46.08296" lon="3.70795">
        <ele>589.72</ele>
        <time>2013-04-06T12:30:16Z</time>
      </trkpt>
      <trkpt lat="46.08305" lon="3.70819">
        <ele>590.41</ele>
        <time>2013-04-06T12:30:22Z</time>
      </trkpt>
      <trkpt lat="46.08315" lon="3.70842">
        <ele>591.11</ele>
        <time>2013-04-06T12:30:29Z</time>
      </trkpt>
      <trkpt lat="46.08324" lon="3.70866">
        <ele>591.74</ele>
        <time>2013-04-06T12:30:36Z</time>
      </trkpt>
      <trkpt lat="46.08334" lon="3.70887">
        <ele>592.45</ele>
        <time>2013-04-06T12:30:43Z</time>
      </trkpt>
      <trkpt lat="46.08345" lon="3.70909">
        <ele>593.41</ele>
        <time>2013-04-06T12:30:50Z</time>
      </trkpt>
      <trkpt lat="46.08357" lon="3.7093">
        <ele>595.02</ele>
        <time>2013-04-06T12:30:58Z</time>
      </trkpt>
      <trkpt lat="46.08371" lon="3.70947">
        <ele>596.26</ele>
        <time>2013-04-06T12:31:06Z</time>
      </trkpt>
      <trkpt lat="46.08384" lon="3.70969">
        <ele>597.84</ele>
        <time>2013-04-06T12:31:15Z</time>
      </trkpt>
      <trkpt lat="46.08399" lon="3.70988">
        <ele>599.28</ele>
        <time>2013-04-06T12:31:25Z</time>
      </trkpt>
      <trkpt lat="46.08413" lon="3.71005">
        <ele>600.29</ele>
        <time>2013-04-06T12:31:33Z</time>
      </trkpt>
      <trkpt lat="46.08429" lon="3.71022">
        <ele>601.65</ele>
        <time>2013-04-06T12:31:42Z</time>
      </trkpt>
      <trkpt lat="46.08446" lon="3.71033">
        <ele>603.04</ele>
        <time>2013-04-06T12:31:50Z</time>
      </trkpt>
      <trkpt lat="46.08466" lon="3.71042">
        <ele>604.25</ele>
        <time>2013-04-06T12:31:57Z</time>
      </trkpt>
      <trkpt lat="46.08485" lon="3.71042">
        <ele>605.27</ele>
        <time>2013-04-06T12:32:04Z</time>
      </trkpt>
      <trkpt lat="46.08504" lon="3.71046">
        <ele>606.35</ele>
        <time>2013-04-06T12:32:13Z</time>
      </trkpt>
      <trkpt lat="46.08515" lon="3.71068">
        <ele>607.4</ele>
        <time>2013-04-06T12:32:22Z</time>
      </trkpt>
      <trkpt lat="46.08525" lon="3.71089">
        <ele>611.76</ele>
        <time>2013-04-06T12:33:09Z</time>
      </trkpt>
      <trkpt lat="46.08517" lon="3.71065">
        <ele>613.55</ele>
        <time>2013-04-06T12:33:47Z</time>
      </trkpt>
      <trkpt lat="46.08524" lon="3.71089">
        <ele>613.55</ele>
        <time>2013-04-06T12:34:27Z</time>
      </trkpt>
      <trkpt lat="46.08536" lon="3.7111">
        <ele>613.55</ele>
        <time>2013-04-06T12:34:39Z</time>
      </trkpt>
      <trkpt lat="46.0855" lon="3.7113">
        <ele>613.55</ele>
        <time>2013-04-06T12:34:52Z</time>
      </trkpt>
      <trkpt lat="46.08562" lon="3.71151">
        <ele>613.99</ele>
        <time>2013-04-06T12:35:06Z</time>
      </trkpt>
      <trkpt lat="46.0858" lon="3.71153">
        <ele>616.93</ele>
        <time>2013-04-06T12:35:33Z</time>
      </trkpt>
      <trkpt lat="46.08597" lon="3.71145">
        <ele>619.64</ele>
        <time>2013-04-06T12:35:53Z</time>
      </trkpt>
      <trkpt lat="46.08614" lon="3.71132">
        <ele>621.96</ele>
        <time>2013-04-06T12:36:04Z</time>
      </trkpt>
      <trkpt lat="46.08632" lon="3.71123">
        <ele>624.47</ele>
        <time>2013-04-06T12:36:15Z</time>
      </trkpt>
      <trkpt lat="46.08649" lon="3.71113">
        <ele>626.73</ele>
        <time>2013-04-06T12:36:24Z</time>
      </trkpt>
      <trkpt lat="46.08667" lon="3.71108">
        <ele>629.92</ele>
        <time>2013-04-06T12:36:35Z</time>
      </trkpt>
      <trkpt lat="46.08685" lon="3.71104">
        <ele>632.03</ele>
        <time>2013-04-06T12:36:46Z</time>
      </trkpt>
      <trkpt lat="46.08705" lon="3.71095">
        <ele>633.53</ele>
        <time>2013-04-06T12:36:55Z</time>
      </trkpt>
      <trkpt lat="46.08721" lon="3.71083">
        <ele>634.89</ele>
        <time>2013-04-06T12:37:00Z</time>
      </trkpt>
      <trkpt lat="46.08738" lon="3.71074">
        <ele>637.53</ele>
        <time>2013-04-06T12:37:07Z</time>
      </trkpt>
      <trkpt lat="46.08755" lon="3.71065">
        <ele>640.12</ele>
        <time>2013-04-06T12:37:18Z</time>
      </trkpt>
      <trkpt lat="46.08773" lon="3.71055">
        <ele>642.19</ele>
        <time>2013-04-06T12:37:31Z</time>
      </trkpt>
      <trkpt lat="46.0879" lon="3.71046">
        <ele>643.81</ele>
        <time>2013-04-06T12:37:38Z</time>
      </trkpt>
      <trkpt lat="46.08809" lon="3.71037">
        <ele>645.22</ele>
        <time>2013-04-06T12:37:45Z</time>
      </trkpt>
      <trkpt lat="46.08827" lon="3.71029">
        <ele>646.68</ele>
        <time>2013-04-06T12:37:55Z</time>
      </trkpt>
      <trkpt lat="46.08845" lon="3.71027">
        <ele>648.35</ele>
        <time>2013-04-06T12:38:08Z</time>
      </trkpt>
      <trkpt lat="46.08863" lon="3.71022">
        <ele>649.98</ele>
        <time>2013-04-06T12:38:16Z</time>
      </trkpt>
      <trkpt lat="46.08882" lon="3.71018">
        <ele>652.58</ele>
        <time>2013-04-06T12:38:29Z</time>
      </trkpt>
      <trkpt lat="46.08899" lon="3.71029">
        <ele>655.32</ele>
        <time>2013-04-06T12:38:43Z</time>
      </trkpt>
      <trkpt lat="46.08916" lon="3.71037">
        <ele>657.07</ele>
        <time>2013-04-06T12:38:55Z</time>
      </trkpt>
      <trkpt lat="46.08933" lon="3.71053">
        <ele>658.08</ele>
        <time>2013-04-06T12:39:03Z</time>
      </trkpt>
      <trkpt lat="46.08951" lon="3.71057">
        <ele>659.28</ele>
        <time>2013-04-06T12:39:12Z</time>
      </trkpt>
      <trkpt lat="46.0897" lon="3.71059">
        <ele>660.98</ele>
        <time>2013-04-06T12:39:21Z</time>
      </trkpt>
      <trkpt lat="46.08989" lon="3.71065">
        <ele>663.54</ele>
        <time>2013-04-06T12:39:32Z</time>
      </trkpt>
      <trkpt lat="46.09007" lon="3.71072">
        <ele>665.24</ele>
        <time>2013-04-06T12:39:41Z</time>
      </trkpt>
      <trkpt lat="46.09023" lon="3.71085">
        <ele>666.26</ele>
        <time>2013-04-06T12:39:53Z</time>
      </trkpt>
      <trkpt lat="46.09036" lon="3.71104">
        <ele>666.3</ele>
        <time>2013-04-06T12:40:06Z</time>
      </trkpt>
      <trkpt lat="46.09045" lon="3.71128">
        <ele>665.57</ele>
        <time>2013-04-06T12:40:20Z</time>
      </trkpt>
      <trkpt lat="46.09054" lon="3.71151">
        <ele>665.55</ele>
        <time>2013-04-06T12:40:33Z</time>
      </trkpt>
      <trkpt lat="46.09063" lon="3.71175">
        <ele>664.6</ele>
        <time>2013-04-06T12:40:44Z</time>
      </trkpt>
      <trkpt lat="46.09073" lon="3.71198">
        <ele>665.42</ele>
        <time>2013-04-06T12:40:56Z</time>
      </trkpt>
      <trkpt lat="46.09082" lon="3.71222">
        <ele>666.23</ele>
        <time>2013-04-06T12:41:05Z</time>
      </trkpt>
      <trkpt lat="46.0909" lon="3.71248">
        <ele>668.86</ele>
        <time>2013-04-06T12:41:15Z</time>
      </trkpt>
      <trkpt lat="46.09096" lon="3.71274">
        <ele>673.5</ele>
        <time>2013-04-06T12:42:46Z</time>
      </trkpt>
      <trkpt lat="46.0911" lon="3.71291">
        <ele>678.39</ele>
        <time>2013-04-06T12:43:37Z</time>
      </trkpt>
      <trkpt lat="46.09129" lon="3.71295">
        <ele>682.12</ele>
        <time>2013-04-06T12:43:46Z</time>
      </trkpt>
      <trkpt lat="46.09148" lon="3.71299">
        <ele>684.56</ele>
        <time>2013-04-06T12:43:53Z</time>
      </trkpt>
      <trkpt lat="46.09166" lon="3.71299">
        <ele>686.68</ele>
        <time>2013-04-06T12:44:00Z</time>
      </trkpt>
      <trkpt lat="46.09182" lon="3.71312">
        <ele>688.15</ele>
        <time>2013-04-06T12:44:08Z</time>
      </trkpt>
      <trkpt lat="46.09196" lon="3.71334">
        <ele>689.41</ele>
        <time>2013-04-06T12:44:14Z</time>
      </trkpt>
      <trkpt lat="46.0921" lon="3.71351">
        <ele>691.34</ele>
        <time>2013-04-06T12:44:17Z</time>
      </trkpt>
      <trkpt lat="46.09233" lon="3.71361">
        <ele>693.06</ele>
        <time>2013-04-06T12:44:20Z</time>
      </trkpt>
      <trkpt lat="46.09258" lon="3.71377">
        <ele>693.92</ele>
        <time>2013-04-06T12:44:23Z</time>
      </trkpt>
      <trkpt lat="46.09276" lon="3.71387">
        <ele>694.2</ele>
        <time>2013-04-06T12:44:25Z</time>
      </trkpt>
      <trkpt lat="46.09293" lon="3.714">
        <ele>693.92</ele>
        <time>2013-04-06T12:44:27Z</time>
      </trkpt>
      <trkpt lat="46.09309" lon="3.71415">
        <ele>693.51</ele>
        <time>2013-04-06T12:44:29Z</time>
      </trkpt>
      <trkpt lat="46.09325" lon="3.71443">
        <ele>691.94</ele>
        <time>2013-04-06T12:44:32Z</time>
      </trkpt>
      <trkpt lat="46.09335" lon="3.71471">
        <ele>690.31</ele>
        <time>2013-04-06T12:44:35Z</time>
      </trkpt>
      <trkpt lat="46.09341" lon="3.71499">
        <ele>688.86</ele>
        <time>2013-04-06T12:44:38Z</time>
      </trkpt>
      <trkpt lat="46.09343" lon="3.71529">
        <ele>686.45</ele>
        <time>2013-04-06T12:44:42Z</time>
      </trkpt>
      <trkpt lat="46.09345" lon="3.71555">
        <ele>684.03</ele>
        <time>2013-04-06T12:44:46Z</time>
      </trkpt>
      <trkpt lat="46.09352" lon="3.7158">
        <ele>682.22</ele>
        <time>2013-04-06T12:44:51Z</time>
      </trkpt>
      <trkpt lat="46.09365" lon="3.71604">
        <ele>679.13</ele>
        <time>2013-04-06T12:44:55Z</time>
      </trkpt>
      <trkpt lat="46.09383" lon="3.71613">
        <ele>676.81</ele>
        <time>2013-04-06T12:44:58Z</time>
      </trkpt>
      <trkpt lat="46.09403" lon="3.71602">
        <ele>675.07</ele>
        <time>2013-04-06T12:45:01Z</time>
      </trkpt>
      <trkpt lat="46.09428" lon="3.71591">
        <ele>673.61</ele>
        <time>2013-04-06T12:45:04Z</time>
      </trkpt>
      <trkpt lat="46.09451" lon="3.716">
        <ele>672.56</ele>
        <time>2013-04-06T12:45:07Z</time>
      </trkpt>
      <trkpt lat="46.09464" lon="3.71619">
        <ele>672.12</ele>
        <time>2013-04-06T12:45:09Z</time>
      </trkpt>
      <trkpt lat="46.09472" lon="3.71647">
        <ele>671.54</ele>
        <time>2013-04-06T12:45:12Z</time>
      </trkpt>
      <trkpt lat="46.0949" lon="3.71645">
        <ele>670.15</ele>
        <time>2013-04-06T12:45:24Z</time>
      </trkpt>
      <trkpt lat="46.09505" lon="3.71619">
        <ele>669.31</ele>
        <time>2013-04-06T12:45:39Z</time>
      </trkpt>
      <trkpt lat="46.09522" lon="3.71604">
        <ele>667.76</ele>
        <time>2013-04-06T12:45:50Z</time>
      </trkpt>
      <trkpt lat="46.0954" lon="3.71587">
        <ele>666.55</ele>
        <time>2013-04-06T12:46:00Z</time>
      </trkpt>
      <trkpt lat="46.0956" lon="3.71572">
        <ele>665.05</ele>
        <time>2013-04-06T12:46:06Z</time>
      </trkpt>
      <trkpt lat="46.0958" lon="3.7155">
        <ele>663.5</ele>
        <time>2013-04-06T12:46:13Z</time>
      </trkpt>
      <trkpt lat="46.09593" lon="3.71527">
        <ele>662.04</ele>
        <time>2013-04-06T12:46:19Z</time>
      </trkpt>
      <trkpt lat="46.09603" lon="3.71499">
        <ele>661.35</ele>
        <time>2013-04-06T12:46:27Z</time>
      </trkpt>
      <trkpt lat="46.09613" lon="3.71475">
        <ele>660.41</ele>
        <time>2013-04-06T12:46:34Z</time>
      </trkpt>
      <trkpt lat="46.09622" lon="3.71449">
        <ele>659.46</ele>
        <time>2013-04-06T12:46:40Z</time>
      </trkpt>
      <trkpt lat="46.0963" lon="3.71415">
        <ele>658.19</ele>
        <time>2013-04-06T12:46:45Z</time>
      </trkpt>
      <trkpt lat="46.09637" lon="3.71389">
        <ele>657.82</ele>
        <time>2013-04-06T12:46:48Z</time>
      </trkpt>
      <trkpt lat="46.09647" lon="3.71355">
        <ele>658.71</ele>
        <time>2013-04-06T12:46:55Z</time>
      </trkpt>
      <trkpt lat="46.09652" lon="3.71327">
        <ele>659.65</ele>
        <time>2013-04-06T12:47:01Z</time>
      </trkpt>
      <trkpt lat="46.09654" lon="3.71297">
        <ele>661.03</ele>
        <time>2013-04-06T12:47:06Z</time>
      </trkpt>
      <trkpt lat="46.09652" lon="3.71267">
        <ele>662.63</ele>
        <time>2013-04-06T12:47:11Z</time>
      </trkpt>
      <trkpt lat="46.09648" lon="3.71241">
        <ele>661.99</ele>
        <time>2013-04-06T12:47:15Z</time>
      </trkpt>
      <trkpt lat="46.0964" lon="3.71211">
        <ele>661.12</ele>
        <time>2013-04-06T12:47:19Z</time>
      </trkpt>
      <trkpt lat="46.09633" lon="3.71181">
        <ele>663.21</ele>
        <time>2013-04-06T12:47:22Z</time>
      </trkpt>
      <trkpt lat="46.09628" lon="3.71143">
        <ele>667.54</ele>
        <time>2013-04-06T12:47:28Z</time>
      </trkpt>
      <trkpt lat="46.09648" lon="3.71145">
        <ele>665.32</ele>
        <time>2013-04-06T12:47:43Z</time>
      </trkpt>
      <trkpt lat="46.09665" lon="3.7116">
        <ele>663.89</ele>
        <time>2013-04-06T12:47:50Z</time>
      </trkpt>
      <trkpt lat="46.09681" lon="3.71175">
        <ele>662.33</ele>
        <time>2013-04-06T12:47:54Z</time>
      </trkpt>
      <trkpt lat="46.09694" lon="3.71201">
        <ele>658.19</ele>
        <time>2013-04-06T12:47:57Z</time>
      </trkpt>
      <trkpt lat="46.09707" lon="3.71231">
        <ele>654.25</ele>
        <time>2013-04-06T12:48:00Z</time>
      </trkpt>
      <trkpt lat="46.09718" lon="3.71252">
        <ele>651.94</ele>
        <time>2013-04-06T12:48:02Z</time>
      </trkpt>
      <trkpt lat="46.09732" lon="3.71274">
        <ele>650.02</ele>
        <time>2013-04-06T12:48:04Z</time>
      </trkpt>
      <trkpt lat="46.09747" lon="3.71295">
        <ele>648.94</ele>
        <time>2013-04-06T12:48:06Z</time>
      </trkpt>
      <trkpt lat="46.09764" lon="3.71314">
        <ele>648.08</ele>
        <time>2013-04-06T12:48:08Z</time>
      </trkpt>
      <trkpt lat="46.09788" lon="3.71329">
        <ele>646.51</ele>
        <time>2013-04-06T12:48:11Z</time>
      </trkpt>
      <trkpt lat="46.09806" lon="3.71336">
        <ele>643.54</ele>
        <time>2013-04-06T12:48:14Z</time>
      </trkpt>
      <trkpt lat="46.09825" lon="3.71325">
        <ele>640.5</ele>
        <time>2013-04-06T12:48:19Z</time>
      </trkpt>
      <trkpt lat="46.09836" lon="3.71304">
        <ele>639.04</ele>
        <time>2013-04-06T12:48:25Z</time>
      </trkpt>
      <trkpt lat="46.09848" lon="3.71278">
        <ele>638.2</ele>
        <time>2013-04-06T12:48:31Z</time>
      </trkpt>
      <trkpt lat="46.09862" lon="3.71258">
        <ele>636.25</ele>
        <time>2013-04-06T12:48:35Z</time>
      </trkpt>
      <trkpt lat="46.09874" lon="3.71237">
        <ele>635.09</ele>
        <time>2013-04-06T12:48:39Z</time>
      </trkpt>
      <trkpt lat="46.0988" lon="3.71211">
        <ele>635.16</ele>
        <time>2013-04-06T12:48:43Z</time>
      </trkpt>
      <trkpt lat="46.09888" lon="3.71183">
        <ele>635.46</ele>
        <time>2013-04-06T12:48:48Z</time>
      </trkpt>
      <trkpt lat="46.09892" lon="3.71158">
        <ele>635.54</ele>
        <time>2013-04-06T12:48:54Z</time>
      </trkpt>
      <trkpt lat="46.09899" lon="3.7113">
        <ele>635.99</ele>
        <time>2013-04-06T12:49:00Z</time>
      </trkpt>
      <trkpt lat="46.09904" lon="3.71104">
        <ele>636.42</ele>
        <time>2013-04-06T12:49:05Z</time>
      </trkpt>
      <trkpt lat="46.09909" lon="3.71074">
        <ele>636.97</ele>
        <time>2013-04-06T12:49:11Z</time>
      </trkpt>
      <trkpt lat="46.09913" lon="3.71044">
        <ele>637.7</ele>
        <time>2013-04-06T12:49:17Z</time>
      </trkpt>
      <trkpt lat="46.09915" lon="3.71016">
        <ele>638.4</ele>
        <time>2013-04-06T12:49:23Z</time>
      </trkpt>
      <trkpt lat="46.09908" lon="3.7099">
        <ele>639.29</ele>
        <time>2013-04-06T12:49:29Z</time>
      </trkpt>
      <trkpt lat="46.09922" lon="3.70967">
        <ele>641.16</ele>
        <time>2013-04-06T12:49:46Z</time>
      </trkpt>
      <trkpt lat="46.09935" lon="3.70947">
        <ele>642.08</ele>
        <time>2013-04-06T12:49:53Z</time>
      </trkpt>
      <trkpt lat="46.09953" lon="3.7093">
        <ele>642.74</ele>
        <time>2013-04-06T12:50:00Z</time>
      </trkpt>
      <trkpt lat="46.09971" lon="3.70915">
        <ele>643.73</ele>
        <time>2013-04-06T12:50:04Z</time>
      </trkpt>
      <trkpt lat="46.09988" lon="3.709">
        <ele>643.77</ele>
        <time>2013-04-06T12:50:07Z</time>
      </trkpt>
      <trkpt lat="46.10004" lon="3.70887">
        <ele>643.07</ele>
        <time>2013-04-06T12:50:10Z</time>
      </trkpt>
      <trkpt lat="46.1002" lon="3.70872">
        <ele>641.94</ele>
        <time>2013-04-06T12:50:13Z</time>
      </trkpt>
      <trkpt lat="46.10036" lon="3.70855">
        <ele>639.44</ele>
        <time>2013-04-06T12:50:16Z</time>
      </trkpt>
      <trkpt lat="46.10052" lon="3.70834">
        <ele>635.68</ele>
        <time>2013-04-06T12:50:19Z</time>
      </trkpt>
      <trkpt lat="46.10065" lon="3.70814">
        <ele>633.04</ele>
        <time>2013-04-06T12:50:22Z</time>
      </trkpt>
      <trkpt lat="46.10083" lon="3.70795">
        <ele>629.87</ele>
        <time>2013-04-06T12:50:28Z</time>
      </trkpt>
      <trkpt lat="46.10096" lon="3.70776">
        <ele>627.7</ele>
        <time>2013-04-06T12:50:31Z</time>
      </trkpt>
      <trkpt lat="46.10108" lon="3.70739">
        <ele>625.19</ele>
        <time>2013-04-06T12:50:34Z</time>
      </trkpt>
      <trkpt lat="46.10119" lon="3.70711">
        <ele>623.35</ele>
        <time>2013-04-06T12:50:36Z</time>
      </trkpt>
      <trkpt lat="46.10128" lon="3.70688">
        <ele>621</ele>
        <time>2013-04-06T12:50:38Z</time>
      </trkpt>
      <trkpt lat="46.10138" lon="3.70664">
        <ele>618.37</ele>
        <time>2013-04-06T12:50:40Z</time>
      </trkpt>
      <trkpt lat="46.10151" lon="3.70643">
        <ele>616.01</ele>
        <time>2013-04-06T12:50:42Z</time>
      </trkpt>
      <trkpt lat="46.10165" lon="3.70621">
        <ele>614.06</ele>
        <time>2013-04-06T12:50:44Z</time>
      </trkpt>
      <trkpt lat="46.10179" lon="3.70595">
        <ele>612.53</ele>
        <time>2013-04-06T12:50:46Z</time>
      </trkpt>
      <trkpt lat="46.10192" lon="3.70574">
        <ele>610.98</ele>
        <time>2013-04-06T12:50:48Z</time>
      </trkpt>
      <trkpt lat="46.10206" lon="3.70555">
        <ele>609.48</ele>
        <time>2013-04-06T12:50:50Z</time>
      </trkpt>
      <trkpt lat="46.10221" lon="3.70538">
        <ele>607.95</ele>
        <time>2013-04-06T12:50:52Z</time>
      </trkpt>
      <trkpt lat="46.1024" lon="3.70514">
        <ele>605.3</ele>
        <time>2013-04-06T12:50:55Z</time>
      </trkpt>
      <trkpt lat="46.10253" lon="3.7049">
        <ele>602.88</ele>
        <time>2013-04-06T12:50:58Z</time>
      </trkpt>
      <trkpt lat="46.10266" lon="3.70469">
        <ele>600.02</ele>
        <time>2013-04-06T12:51:01Z</time>
      </trkpt>
      <trkpt lat="46.10282" lon="3.7045">
        <ele>595.35</ele>
        <time>2013-04-06T12:51:06Z</time>
      </trkpt>
      <trkpt lat="46.10298" lon="3.7043">
        <ele>592.2</ele>
        <time>2013-04-06T12:51:11Z</time>
      </trkpt>
      <trkpt lat="46.10313" lon="3.70411">
        <ele>590.18</ele>
        <time>2013-04-06T12:51:16Z</time>
      </trkpt>
      <trkpt lat="46.10327" lon="3.70392">
        <ele>589.7</ele>
        <time>2013-04-06T12:51:21Z</time>
      </trkpt>
      <trkpt lat="46.10341" lon="3.70372">
        <ele>589.58</ele>
        <time>2013-04-06T12:51:27Z</time>
      </trkpt>
      <trkpt lat="46.10355" lon="3.70353">
        <ele>589.56</ele>
        <time>2013-04-06T12:51:34Z</time>
      </trkpt>
      <trkpt lat="46.10369" lon="3.70332">
        <ele>589.55</ele>
        <time>2013-04-06T12:51:42Z</time>
      </trkpt>
      <trkpt lat="46.10384" lon="3.70317">
        <ele>589.55</ele>
        <time>2013-04-06T12:51:49Z</time>
      </trkpt>
      <trkpt lat="46.10407" lon="3.70301">
        <ele>590.42</ele>
        <time>2013-04-06T12:52:00Z</time>
      </trkpt>
      <trkpt lat="46.10429" lon="3.70293">
        <ele>590.54</ele>
        <time>2013-04-06T12:52:08Z</time>
      </trkpt>
      <trkpt lat="46.10447" lon="3.70289">
        <ele>590.55</ele>
        <time>2013-04-06T12:52:13Z</time>
      </trkpt>
      <trkpt lat="46.10469" lon="3.70284">
        <ele>590.11</ele>
        <time>2013-04-06T12:52:17Z</time>
      </trkpt>
      <trkpt lat="46.10491" lon="3.70282">
        <ele>588.77</ele>
        <time>2013-04-06T12:52:20Z</time>
      </trkpt>
      <trkpt lat="46.1051" lon="3.70276">
        <ele>587.49</ele>
        <time>2013-04-06T12:52:23Z</time>
      </trkpt>
      <trkpt lat="46.1053" lon="3.70271">
        <ele>586.95</ele>
        <time>2013-04-06T12:52:26Z</time>
      </trkpt>
      <trkpt lat="46.10551" lon="3.70267">
        <ele>586.47</ele>
        <time>2013-04-06T12:52:29Z</time>
      </trkpt>
      <trkpt lat="46.10572" lon="3.70259">
        <ele>585.69</ele>
        <time>2013-04-06T12:52:32Z</time>
      </trkpt>
      <trkpt lat="46.10597" lon="3.7025">
        <ele>584.6</ele>
        <time>2013-04-06T12:52:35Z</time>
      </trkpt>
      <trkpt lat="46.1062" lon="3.70233">
        <ele>583.16</ele>
        <time>2013-04-06T12:52:38Z</time>
      </trkpt>
      <trkpt lat="46.10636" lon="3.70216">
        <ele>582.02</ele>
        <time>2013-04-06T12:52:40Z</time>
      </trkpt>
      <trkpt lat="46.10653" lon="3.70203">
        <ele>580.94</ele>
        <time>2013-04-06T12:52:42Z</time>
      </trkpt>
      <trkpt lat="46.10675" lon="3.70186">
        <ele>578.44</ele>
        <time>2013-04-06T12:52:45Z</time>
      </trkpt>
      <trkpt lat="46.10701" lon="3.70181">
        <ele>574.93</ele>
        <time>2013-04-06T12:52:48Z</time>
      </trkpt>
      <trkpt lat="46.10719" lon="3.70188">
        <ele>572.33</ele>
        <time>2013-04-06T12:52:50Z</time>
      </trkpt>
      <trkpt lat="46.10737" lon="3.70203">
        <ele>569.99</ele>
        <time>2013-04-06T12:52:52Z</time>
      </trkpt>
      <trkpt lat="46.10753" lon="3.70218">
        <ele>568.23</ele>
        <time>2013-04-06T12:52:54Z</time>
      </trkpt>
      <trkpt lat="46.1077" lon="3.70229">
        <ele>566.62</ele>
        <time>2013-04-06T12:52:56Z</time>
      </trkpt>
      <trkpt lat="46.10788" lon="3.70239">
        <ele>565.03</ele>
        <time>2013-04-06T12:52:58Z</time>
      </trkpt>
      <trkpt lat="46.10806" lon="3.70248">
        <ele>563.7</ele>
        <time>2013-04-06T12:53:00Z</time>
      </trkpt>
      <trkpt lat="46.1083" lon="3.70246">
        <ele>562.02</ele>
        <time>2013-04-06T12:53:03Z</time>
      </trkpt>
      <trkpt lat="46.10851" lon="3.70237">
        <ele>559.91</ele>
        <time>2013-04-06T12:53:06Z</time>
      </trkpt>
      <trkpt lat="46.10874" lon="3.70241">
        <ele>557.28</ele>
        <time>2013-04-06T12:53:10Z</time>
      </trkpt>
      <trkpt lat="46.10892" lon="3.70248">
        <ele>555.86</ele>
        <time>2013-04-06T12:53:16Z</time>
      </trkpt>
      <trkpt lat="46.1091" lon="3.70241">
        <ele>553.89</ele>
        <time>2013-04-06T12:53:30Z</time>
      </trkpt>
      <trkpt lat="46.10925" lon="3.70224">
        <ele>552.8</ele>
        <time>2013-04-06T12:53:42Z</time>
      </trkpt>
      <trkpt lat="46.10939" lon="3.70205">
        <ele>552.56</ele>
        <time>2013-04-06T12:53:55Z</time>
      </trkpt>
      <trkpt lat="46.10954" lon="3.70179">
        <ele>552.3</ele>
        <time>2013-04-06T12:54:10Z</time>
      </trkpt>
      <trkpt lat="46.10965" lon="3.70158">
        <ele>551.31</ele>
        <time>2013-04-06T12:54:25Z</time>
      </trkpt>
      <trkpt lat="46.10973" lon="3.7019">
        <ele>550.15</ele>
        <time>2013-04-06T12:55:20Z</time>
      </trkpt>
      <trkpt lat="46.10972" lon="3.70218">
        <ele>547.44</ele>
        <time>2013-04-06T12:55:33Z</time>
      </trkpt>
      <trkpt lat="46.10974" lon="3.70244">
        <ele>544.34</ele>
        <time>2013-04-06T12:55:46Z</time>
      </trkpt>
      <trkpt lat="46.10975" lon="3.70271">
        <ele>541.24</ele>
        <time>2013-04-06T12:55:58Z</time>
      </trkpt>
      <trkpt lat="46.10972" lon="3.70297">
        <ele>537.82</ele>
        <time>2013-04-06T12:56:13Z</time>
      </trkpt>
      <trkpt lat="46.1097" lon="3.70325">
        <ele>536.87</ele>
        <time>2013-04-06T12:56:23Z</time>
      </trkpt>
      <trkpt lat="46.10968" lon="3.70351">
        <ele>538.76</ele>
        <time>2013-04-06T12:56:32Z</time>
      </trkpt>
      <trkpt lat="46.10961" lon="3.70374">
        <ele>541.61</ele>
        <time>2013-04-06T12:56:42Z</time>
      </trkpt>
      <trkpt lat="46.10951" lon="3.70398">
        <ele>545.3</ele>
        <time>2013-04-06T12:56:50Z</time>
      </trkpt>
      <trkpt lat="46.10944" lon="3.70424">
        <ele>553.29</ele>
        <time>2013-04-06T12:57:06Z</time>
      </trkpt>
      <trkpt lat="46.10943" lon="3.70452">
        <ele>558.71</ele>
        <time>2013-04-06T12:57:22Z</time>
      </trkpt>
      <trkpt lat="46.10936" lon="3.70477">
        <ele>561.05</ele>
        <time>2013-04-06T12:57:35Z</time>
      </trkpt>
      <trkpt lat="46.10925" lon="3.70501">
        <ele>565.36</ele>
        <time>2013-04-06T12:57:46Z</time>
      </trkpt>
      <trkpt lat="46.10916" lon="3.70525">
        <ele>568.71</ele>
        <time>2013-04-06T12:57:57Z</time>
      </trkpt>
      <trkpt lat="46.10906" lon="3.70548">
        <ele>571.94</ele>
        <time>2013-04-06T12:58:10Z</time>
      </trkpt>
      <trkpt lat="46.10898" lon="3.70572">
        <ele>574.31</ele>
        <time>2013-04-06T12:58:22Z</time>
      </trkpt>
      <trkpt lat="46.10887" lon="3.70593">
        <ele>576.17</ele>
        <time>2013-04-06T12:58:33Z</time>
      </trkpt>
      <trkpt lat="46.10876" lon="3.70615">
        <ele>578.11</ele>
        <time>2013-04-06T12:58:42Z</time>
      </trkpt>
      <trkpt lat="46.10864" lon="3.70636">
        <ele>580.54</ele>
        <time>2013-04-06T12:58:52Z</time>
      </trkpt>
      <trkpt lat="46.10852" lon="3.7066">
        <ele>582.24</ele>
        <time>2013-04-06T12:59:01Z</time>
      </trkpt>
      <trkpt lat="46.10842" lon="3.70681">
        <ele>583.86</ele>
        <time>2013-04-06T12:59:09Z</time>
      </trkpt>
      <trkpt lat="46.10829" lon="3.70701">
        <ele>585.57</ele>
        <time>2013-04-06T12:59:18Z</time>
      </trkpt>
      <trkpt lat="46.10815" lon="3.7072">
        <ele>587.76</ele>
        <time>2013-04-06T12:59:28Z</time>
      </trkpt>
      <trkpt lat="46.10802" lon="3.70741">
        <ele>590.42</ele>
        <time>2013-04-06T12:59:38Z</time>
      </trkpt>
      <trkpt lat="46.10792" lon="3.70765">
        <ele>592.79</ele>
        <time>2013-04-06T12:59:48Z</time>
      </trkpt>
      <trkpt lat="46.10784" lon="3.70789">
        <ele>594.24</ele>
        <time>2013-04-06T12:59:56Z</time>
      </trkpt>
      <trkpt lat="46.10776" lon="3.70814">
        <ele>596.03</ele>
        <time>2013-04-06T13:00:05Z</time>
      </trkpt>
      <trkpt lat="46.10769" lon="3.70838">
        <ele>597.2</ele>
        <time>2013-04-06T13:00:14Z</time>
      </trkpt>
      <trkpt lat="46.10758" lon="3.70862">
        <ele>597.95</ele>
        <time>2013-04-06T13:00:22Z</time>
      </trkpt>
      <trkpt lat="46.10749" lon="3.70885">
        <ele>598.93</ele>
        <time>2013-04-06T13:00:30Z</time>
      </trkpt>
      <trkpt lat="46.10751" lon="3.70913">
        <ele>600.9</ele>
        <time>2013-04-06T13:00:44Z</time>
      </trkpt>
      <trkpt lat="46.10767" lon="3.7093">
        <ele>604.8</ele>
        <time>2013-04-06T13:02:23Z</time>
      </trkpt>
      <trkpt lat="46.10786" lon="3.70939">
        <ele>606.54</ele>
        <time>2013-04-06T13:02:29Z</time>
      </trkpt>
      <trkpt lat="46.10805" lon="3.70943">
        <ele>609.87</ele>
        <time>2013-04-06T13:02:33Z</time>
      </trkpt>
      <trkpt lat="46.10828" lon="3.70947">
        <ele>611.7</ele>
        <time>2013-04-06T13:02:37Z</time>
      </trkpt>
      <trkpt lat="46.10845" lon="3.7096">
        <ele>612.28</ele>
        <time>2013-04-06T13:02:41Z</time>
      </trkpt>
      <trkpt lat="46.10859" lon="3.7099">
        <ele>611.6</ele>
        <time>2013-04-06T13:02:52Z</time>
      </trkpt>
      <trkpt lat="46.10862" lon="3.71018">
        <ele>610.36</ele>
        <time>2013-04-06T13:03:03Z</time>
      </trkpt>
      <trkpt lat="46.10876" lon="3.71035">
        <ele>609.2</ele>
        <time>2013-04-06T13:03:11Z</time>
      </trkpt>
      <trkpt lat="46.10894" lon="3.71037">
        <ele>606.86</ele>
        <time>2013-04-06T13:03:16Z</time>
      </trkpt>
      <trkpt lat="46.10904" lon="3.71065">
        <ele>603.45</ele>
        <time>2013-04-06T13:03:22Z</time>
      </trkpt>
      <trkpt lat="46.10906" lon="3.71091">
        <ele>600.89</ele>
        <time>2013-04-06T13:03:26Z</time>
      </trkpt>
      <trkpt lat="46.10908" lon="3.71117">
        <ele>597.59</ele>
        <time>2013-04-06T13:03:30Z</time>
      </trkpt>
      <trkpt lat="46.10908" lon="3.71149">
        <ele>595.67</ele>
        <time>2013-04-06T13:03:36Z</time>
      </trkpt>
      <trkpt lat="46.10904" lon="3.71179">
        <ele>594.13</ele>
        <time>2013-04-06T13:03:41Z</time>
      </trkpt>
      <trkpt lat="46.10899" lon="3.71207">
        <ele>591.35</ele>
        <time>2013-04-06T13:03:45Z</time>
      </trkpt>
      <trkpt lat="46.10891" lon="3.71241">
        <ele>589.54</ele>
        <time>2013-04-06T13:03:49Z</time>
      </trkpt>
      <trkpt lat="46.1089" lon="3.71274">
        <ele>588.53</ele>
        <time>2013-04-06T13:03:52Z</time>
      </trkpt>
      <trkpt lat="46.10902" lon="3.71301">
        <ele>587.14</ele>
        <time>2013-04-06T13:03:55Z</time>
      </trkpt>
      <trkpt lat="46.10922" lon="3.71319">
        <ele>585.78</ele>
        <time>2013-04-06T13:03:58Z</time>
      </trkpt>
      <trkpt lat="46.1094" lon="3.71325">
        <ele>584.81</ele>
        <time>2013-04-06T13:04:00Z</time>
      </trkpt>
      <trkpt lat="46.1096" lon="3.71334">
        <ele>584.26</ele>
        <time>2013-04-06T13:04:02Z</time>
      </trkpt>
      <trkpt lat="46.10983" lon="3.71342">
        <ele>583.51</ele>
        <time>2013-04-06T13:04:04Z</time>
      </trkpt>
      <trkpt lat="46.11005" lon="3.71346">
        <ele>582.84</ele>
        <time>2013-04-06T13:04:06Z</time>
      </trkpt>
      <trkpt lat="46.11028" lon="3.71355">
        <ele>581.27</ele>
        <time>2013-04-06T13:04:09Z</time>
      </trkpt>
      <trkpt lat="46.11051" lon="3.71361">
        <ele>579.45</ele>
        <time>2013-04-06T13:04:12Z</time>
      </trkpt>
      <trkpt lat="46.11068" lon="3.71381">
        <ele>577.72</ele>
        <time>2013-04-06T13:04:16Z</time>
      </trkpt>
      <trkpt lat="46.11058" lon="3.71413">
        <ele>575.6</ele>
        <time>2013-04-06T13:04:31Z</time>
      </trkpt>
      <trkpt lat="46.11041" lon="3.71426">
        <ele>574.55</ele>
        <time>2013-04-06T13:04:39Z</time>
      </trkpt>
      <trkpt lat="46.11023" lon="3.71432">
        <ele>573.4</ele>
        <time>2013-04-06T13:04:47Z</time>
      </trkpt>
      <trkpt lat="46.11004" lon="3.71439">
        <ele>571.53</ele>
        <time>2013-04-06T13:04:57Z</time>
      </trkpt>
      <trkpt lat="46.10986" lon="3.71447">
        <ele>570.36</ele>
        <time>2013-04-06T13:05:07Z</time>
      </trkpt>
      <trkpt lat="46.10959" lon="3.71456">
        <ele>569.57</ele>
        <time>2013-04-06T13:05:21Z</time>
      </trkpt>
      <trkpt lat="46.10938" lon="3.71464">
        <ele>570.63</ele>
        <time>2013-04-06T13:05:31Z</time>
      </trkpt>
      <trkpt lat="46.10919" lon="3.71473">
        <ele>572.63</ele>
        <time>2013-04-06T13:05:42Z</time>
      </trkpt>
      <trkpt lat="46.10901" lon="3.71482">
        <ele>574.93</ele>
        <time>2013-04-06T13:05:55Z</time>
      </trkpt>
      <trkpt lat="46.1088" lon="3.71486">
        <ele>577.67</ele>
        <time>2013-04-06T13:06:09Z</time>
      </trkpt>
      <trkpt lat="46.1086" lon="3.71497">
        <ele>579.59</ele>
        <time>2013-04-06T13:06:20Z</time>
      </trkpt>
      <trkpt lat="46.10842" lon="3.71497">
        <ele>580.57</ele>
        <time>2013-04-06T13:06:25Z</time>
      </trkpt>
      <trkpt lat="46.10822" lon="3.7149">
        <ele>582</ele>
        <time>2013-04-06T13:06:30Z</time>
      </trkpt>
      <trkpt lat="46.10799" lon="3.7148">
        <ele>582.77</ele>
        <time>2013-04-06T13:06:40Z</time>
      </trkpt>
      <trkpt lat="46.10781" lon="3.71469">
        <ele>584.49</ele>
        <time>2013-04-06T13:06:48Z</time>
      </trkpt>
      <trkpt lat="46.10763" lon="3.71458">
        <ele>586.3</ele>
        <time>2013-04-06T13:06:54Z</time>
      </trkpt>
      <trkpt lat="46.10744" lon="3.71458">
        <ele>588.66</ele>
        <time>2013-04-06T13:07:06Z</time>
      </trkpt>
      <trkpt lat="46.10727" lon="3.71432">
        <ele>594.68</ele>
        <time>2013-04-06T13:08:45Z</time>
      </trkpt>
      <trkpt lat="46.10711" lon="3.71409">
        <ele>595.79</ele>
        <time>2013-04-06T13:09:00Z</time>
      </trkpt>
      <trkpt lat="46.1069" lon="3.71402">
        <ele>596.55</ele>
        <time>2013-04-06T13:09:18Z</time>
      </trkpt>
      <trkpt lat="46.10673" lon="3.71389">
        <ele>596.55</ele>
        <time>2013-04-06T13:09:39Z</time>
      </trkpt>
      <trkpt lat="46.1066" lon="3.7137">
        <ele>595.63</ele>
        <time>2013-04-06T13:09:54Z</time>
      </trkpt>
      <trkpt lat="46.10644" lon="3.71357">
        <ele>594.87</ele>
        <time>2013-04-06T13:10:09Z</time>
      </trkpt>
      <trkpt lat="46.10631" lon="3.71338">
        <ele>594.8</ele>
        <time>2013-04-06T13:10:27Z</time>
      </trkpt>
      <trkpt lat="46.10613" lon="3.71334">
        <ele>597.45</ele>
        <time>2013-04-06T13:10:43Z</time>
      </trkpt>
      <trkpt lat="46.10596" lon="3.71344">
        <ele>596.65</ele>
        <time>2013-04-06T13:11:02Z</time>
      </trkpt>
      <trkpt lat="46.10583" lon="3.71366">
        <ele>594.9</ele>
        <time>2013-04-06T13:11:16Z</time>
      </trkpt>
      <trkpt lat="46.10577" lon="3.71392">
        <ele>595.94</ele>
        <time>2013-04-06T13:11:30Z</time>
      </trkpt>
      <trkpt lat="46.10575" lon="3.71419">
        <ele>597.75</ele>
        <time>2013-04-06T13:11:38Z</time>
      </trkpt>
      <trkpt lat="46.1057" lon="3.71445">
        <ele>600.48</ele>
        <time>2013-04-06T13:11:47Z</time>
      </trkpt>
      <trkpt lat="46.10564" lon="3.71471">
        <ele>604.77</ele>
        <time>2013-04-06T13:11:58Z</time>
      </trkpt>
      <trkpt lat="46.10555" lon="3.71497">
        <ele>608.27</ele>
        <time>2013-04-06T13:12:09Z</time>
      </trkpt>
      <trkpt lat="46.10545" lon="3.71522">
        <ele>610.67</ele>
        <time>2013-04-06T13:12:15Z</time>
      </trkpt>
      <trkpt lat="46.10535" lon="3.71546">
        <ele>613.48</ele>
        <time>2013-04-06T13:12:20Z</time>
      </trkpt>
      <trkpt lat="46.10525" lon="3.7157">
        <ele>617.1</ele>
        <time>2013-04-06T13:12:28Z</time>
      </trkpt>
      <trkpt lat="46.10512" lon="3.71589">
        <ele>620.88</ele>
        <time>2013-04-06T13:12:39Z</time>
      </trkpt>
      <trkpt lat="46.10497" lon="3.71604">
        <ele>620.83</ele>
        <time>2013-04-06T13:12:49Z</time>
      </trkpt>
      <trkpt lat="46.10482" lon="3.71621">
        <ele>618.27</ele>
        <time>2013-04-06T13:12:59Z</time>
      </trkpt>
      <trkpt lat="46.10472" lon="3.71647">
        <ele>616.92</ele>
        <time>2013-04-06T13:13:08Z</time>
      </trkpt>
      <trkpt lat="46.10464" lon="3.7167">
        <ele>617.17</ele>
        <time>2013-04-06T13:13:16Z</time>
      </trkpt>
      <trkpt lat="46.10462" lon="3.71696">
        <ele>619.02</ele>
        <time>2013-04-06T13:13:29Z</time>
      </trkpt>
      <trkpt lat="46.10463" lon="3.71724">
        <ele>620.22</ele>
        <time>2013-04-06T13:13:46Z</time>
      </trkpt>
      <trkpt lat="46.10464" lon="3.71752">
        <ele>616.93</ele>
        <time>2013-04-06T13:14:00Z</time>
      </trkpt>
      <trkpt lat="46.10461" lon="3.71778">
        <ele>616.58</ele>
        <time>2013-04-06T13:14:09Z</time>
      </trkpt>
      <trkpt lat="46.10464" lon="3.71804">
        <ele>619.1</ele>
        <time>2013-04-06T13:14:29Z</time>
      </trkpt>
      <trkpt lat="46.10471" lon="3.71829">
        <ele>621.48</ele>
        <time>2013-04-06T13:14:44Z</time>
      </trkpt>
      <trkpt lat="46.10484" lon="3.71849">
        <ele>622.93</ele>
        <time>2013-04-06T13:14:54Z</time>
      </trkpt>
      <trkpt lat="46.10488" lon="3.71874">
        <ele>625.07</ele>
        <time>2013-04-06T13:15:04Z</time>
      </trkpt>
      <trkpt lat="46.10492" lon="3.719">
        <ele>628.49</ele>
        <time>2013-04-06T13:15:24Z</time>
      </trkpt>
      <trkpt lat="46.10493" lon="3.7193">
        <ele>630.63</ele>
        <time>2013-04-06T13:15:31Z</time>
      </trkpt>
      <trkpt lat="46.10483" lon="3.71954">
        <ele>632.1</ele>
        <time>2013-04-06T13:15:36Z</time>
      </trkpt>
      <trkpt lat="46.10473" lon="3.71977">
        <ele>632.47</ele>
        <time>2013-04-06T13:15:42Z</time>
      </trkpt>
      <trkpt lat="46.10463" lon="3.72003">
        <ele>632.55</ele>
        <time>2013-04-06T13:15:51Z</time>
      </trkpt>
      <trkpt lat="46.10458" lon="3.72031">
        <ele>632.55</ele>
        <time>2013-04-06T13:15:59Z</time>
      </trkpt>
      <trkpt lat="46.10459" lon="3.72059">
        <ele>632.55</ele>
        <time>2013-04-06T13:16:07Z</time>
      </trkpt>
      <trkpt lat="46.10461" lon="3.72085">
        <ele>631.87</ele>
        <time>2013-04-06T13:16:18Z</time>
      </trkpt>
      <trkpt lat="46.10457" lon="3.7211">
        <ele>630.57</ele>
        <time>2013-04-06T13:16:34Z</time>
      </trkpt>
      <trkpt lat="46.10449" lon="3.72134">
        <ele>627.63</ele>
        <time>2013-04-06T13:16:55Z</time>
      </trkpt>
      <trkpt lat="46.10437" lon="3.72155">
        <ele>625.05</ele>
        <time>2013-04-06T13:17:08Z</time>
      </trkpt>
      <trkpt lat="46.10427" lon="3.72177">
        <ele>622.19</ele>
        <time>2013-04-06T13:17:18Z</time>
      </trkpt>
      <trkpt lat="46.10413" lon="3.72198">
        <ele>619.92</ele>
        <time>2013-04-06T13:17:26Z</time>
      </trkpt>
      <trkpt lat="46.10395" lon="3.72216">
        <ele>616.86</ele>
        <time>2013-04-06T13:17:35Z</time>
      </trkpt>
      <trkpt lat="46.10386" lon="3.72241">
        <ele>615.25</ele>
        <time>2013-04-06T13:17:43Z</time>
      </trkpt>
      <trkpt lat="46.10386" lon="3.72269">
        <ele>615.04</ele>
        <time>2013-04-06T13:17:52Z</time>
      </trkpt>
      <trkpt lat="46.1038" lon="3.72295">
        <ele>615.75</ele>
        <time>2013-04-06T13:18:00Z</time>
      </trkpt>
      <trkpt lat="46.1037" lon="3.72319">
        <ele>616.52</ele>
        <time>2013-04-06T13:18:11Z</time>
      </trkpt>
      <trkpt lat="46.10359" lon="3.7234">
        <ele>617.31</ele>
        <time>2013-04-06T13:18:19Z</time>
      </trkpt>
      <trkpt lat="46.10348" lon="3.72366">
        <ele>617.52</ele>
        <time>2013-04-06T13:18:26Z</time>
      </trkpt>
      <trkpt lat="46.1034" lon="3.72391">
        <ele>616.78</ele>
        <time>2013-04-06T13:18:32Z</time>
      </trkpt>
      <trkpt lat="46.10331" lon="3.72417">
        <ele>616.61</ele>
        <time>2013-04-06T13:18:37Z</time>
      </trkpt>
      <trkpt lat="46.10322" lon="3.72441">
        <ele>616.56</ele>
        <time>2013-04-06T13:18:43Z</time>
      </trkpt>
      <trkpt lat="46.10312" lon="3.72467">
        <ele>614.45</ele>
        <time>2013-04-06T13:18:52Z</time>
      </trkpt>
      <trkpt lat="46.10297" lon="3.72484">
        <ele>610.86</ele>
        <time>2013-04-06T13:19:02Z</time>
      </trkpt>
      <trkpt lat="46.10283" lon="3.72501">
        <ele>607.02</ele>
        <time>2013-04-06T13:19:14Z</time>
      </trkpt>
      <trkpt lat="46.1027" lon="3.72522">
        <ele>602.91</ele>
        <time>2013-04-06T13:19:24Z</time>
      </trkpt>
      <trkpt lat="46.10257" lon="3.72544">
        <ele>599.93</ele>
        <time>2013-04-06T13:19:32Z</time>
      </trkpt>
      <trkpt lat="46.1026" lon="3.7257">
        <ele>598.66</ele>
        <time>2013-04-06T13:19:41Z</time>
      </trkpt>
      <trkpt lat="46.10273" lon="3.72589">
        <ele>598.81</ele>
        <time>2013-04-06T13:19:50Z</time>
      </trkpt>
      <trkpt lat="46.10288" lon="3.72608">
        <ele>600.06</ele>
        <time>2013-04-06T13:19:58Z</time>
      </trkpt>
      <trkpt lat="46.10297" lon="3.72632">
        <ele>601.76</ele>
        <time>2013-04-06T13:20:06Z</time>
      </trkpt>
      <trkpt lat="46.10301" lon="3.72658">
        <ele>603.81</ele>
        <time>2013-04-06T13:20:16Z</time>
      </trkpt>
      <trkpt lat="46.1031" lon="3.72681">
        <ele>605.58</ele>
        <time>2013-04-06T13:20:26Z</time>
      </trkpt>
      <trkpt lat="46.10314" lon="3.72707">
        <ele>607.68</ele>
        <time>2013-04-06T13:20:35Z</time>
      </trkpt>
      <trkpt lat="46.1032" lon="3.72733">
        <ele>612.55</ele>
        <time>2013-04-06T13:20:48Z</time>
      </trkpt>
      <trkpt lat="46.10318" lon="3.72761">
        <ele>617.46</ele>
        <time>2013-04-06T13:20:59Z</time>
      </trkpt>
      <trkpt lat="46.1031" lon="3.72784">
        <ele>622.23</ele>
        <time>2013-04-06T13:21:11Z</time>
      </trkpt>
      <trkpt lat="46.10307" lon="3.7281">
        <ele>627.37</ele>
        <time>2013-04-06T13:22:08Z</time>
      </trkpt>
      <trkpt lat="46.10303" lon="3.72836">
        <ele>634.3</ele>
        <time>2013-04-06T13:23:04Z</time>
      </trkpt>
      <trkpt lat="46.10303" lon="3.72866">
        <ele>637.98</ele>
        <time>2013-04-06T13:23:14Z</time>
      </trkpt>
      <trkpt lat="46.10313" lon="3.72889">
        <ele>638.5</ele>
        <time>2013-04-06T13:23:22Z</time>
      </trkpt>
      <trkpt lat="46.10332" lon="3.72891">
        <ele>638.55</ele>
        <time>2013-04-06T13:23:31Z</time>
      </trkpt>
      <trkpt lat="46.10349" lon="3.72879">
        <ele>637.97</ele>
        <time>2013-04-06T13:23:40Z</time>
      </trkpt>
      <trkpt lat="46.10365" lon="3.72861">
        <ele>636.28</ele>
        <time>2013-04-06T13:23:49Z</time>
      </trkpt>
      <trkpt lat="46.10381" lon="3.72849">
        <ele>634.86</ele>
        <time>2013-04-06T13:23:57Z</time>
      </trkpt>
      <trkpt lat="46.10399" lon="3.72836">
        <ele>633.33</ele>
        <time>2013-04-06T13:24:04Z</time>
      </trkpt>
      <trkpt lat="46.10417" lon="3.72823">
        <ele>631.56</ele>
        <time>2013-04-06T13:24:12Z</time>
      </trkpt>
      <trkpt lat="46.10434" lon="3.72814">
        <ele>630.4</ele>
        <time>2013-04-06T13:24:20Z</time>
      </trkpt>
      <trkpt lat="46.10452" lon="3.72801">
        <ele>630.35</ele>
        <time>2013-04-06T13:24:27Z</time>
      </trkpt>
      <trkpt lat="46.10468" lon="3.72786">
        <ele>630.95</ele>
        <time>2013-04-06T13:24:33Z</time>
      </trkpt>
      <trkpt lat="46.10483" lon="3.72771">
        <ele>632.05</ele>
        <time>2013-04-06T13:24:40Z</time>
      </trkpt>
      <trkpt lat="46.10497" lon="3.72754">
        <ele>633.27</ele>
        <time>2013-04-06T13:24:48Z</time>
      </trkpt>
      <trkpt lat="46.10508" lon="3.72733">
        <ele>634.54</ele>
        <time>2013-04-06T13:25:04Z</time>
      </trkpt>
      <trkpt lat="46.10513" lon="3.72758">
        <ele>633.2</ele>
        <time>2013-04-06T13:26:33Z</time>
      </trkpt>
      <trkpt lat="46.10506" lon="3.72786">
        <ele>630.32</ele>
        <time>2013-04-06T13:26:41Z</time>
      </trkpt>
      <trkpt lat="46.10495" lon="3.7281">
        <ele>626.45</ele>
        <time>2013-04-06T13:26:51Z</time>
      </trkpt>
      <trkpt lat="46.10484" lon="3.72831">
        <ele>622</ele>
        <time>2013-04-06T13:27:06Z</time>
      </trkpt>
      <trkpt lat="46.10476" lon="3.72855">
        <ele>618.18</ele>
        <time>2013-04-06T13:27:20Z</time>
      </trkpt>
      <trkpt lat="46.10467" lon="3.72879">
        <ele>616.65</ele>
        <time>2013-04-06T13:27:31Z</time>
      </trkpt>
      <trkpt lat="46.10458" lon="3.72902">
        <ele>616.56</ele>
        <time>2013-04-06T13:27:42Z</time>
      </trkpt>
      <trkpt lat="46.1045" lon="3.72928">
        <ele>617.38</ele>
        <time>2013-04-06T13:27:56Z</time>
      </trkpt>
      <trkpt lat="46.10447" lon="3.72954">
        <ele>618.47</ele>
        <time>2013-04-06T13:28:06Z</time>
      </trkpt>
      <trkpt lat="46.10446" lon="3.72984">
        <ele>619.99</ele>
        <time>2013-04-06T13:28:14Z</time>
      </trkpt>
      <trkpt lat="46.1044" lon="3.73009">
        <ele>621.85</ele>
        <time>2013-04-06T13:28:20Z</time>
      </trkpt>
      <trkpt lat="46.10433" lon="3.73033">
        <ele>623.59</ele>
        <time>2013-04-06T13:28:25Z</time>
      </trkpt>
      <trkpt lat="46.10423" lon="3.73059">
        <ele>626.98</ele>
        <time>2013-04-06T13:28:31Z</time>
      </trkpt>
      <trkpt lat="46.10419" lon="3.73087">
        <ele>631.98</ele>
        <time>2013-04-06T13:28:38Z</time>
      </trkpt>
      <trkpt lat="46.10416" lon="3.73112">
        <ele>637.05</ele>
        <time>2013-04-06T13:28:44Z</time>
      </trkpt>
      <trkpt lat="46.1041" lon="3.7314">
        <ele>642.94</ele>
        <time>2013-04-06T13:28:51Z</time>
      </trkpt>
      <trkpt lat="46.10416" lon="3.73166">
        <ele>647.85</ele>
        <time>2013-04-06T13:28:59Z</time>
      </trkpt>
      <trkpt lat="46.1043" lon="3.73188">
        <ele>651.93</ele>
        <time>2013-04-06T13:29:09Z</time>
      </trkpt>
      <trkpt lat="46.10445" lon="3.73207">
        <ele>653.48</ele>
        <time>2013-04-06T13:29:20Z</time>
      </trkpt>
      <trkpt lat="46.10458" lon="3.73228">
        <ele>653.3</ele>
        <time>2013-04-06T13:29:30Z</time>
      </trkpt>
      <trkpt lat="46.10472" lon="3.73248">
        <ele>652.03</ele>
        <time>2013-04-06T13:29:39Z</time>
      </trkpt>
      <trkpt lat="46.10487" lon="3.73263">
        <ele>651.6</ele>
        <time>2013-04-06T13:29:47Z</time>
      </trkpt>
      <trkpt lat="46.10504" lon="3.73276">
        <ele>652.14</ele>
        <time>2013-04-06T13:29:55Z</time>
      </trkpt>
      <trkpt lat="46.10522" lon="3.73288">
        <ele>653.09</ele>
        <time>2013-04-06T13:30:03Z</time>
      </trkpt>
      <trkpt lat="46.10537" lon="3.73303">
        <ele>654.58</ele>
        <time>2013-04-06T13:30:11Z</time>
      </trkpt>
      <trkpt lat="46.1055" lon="3.73323">
        <ele>656.54</ele>
        <time>2013-04-06T13:30:18Z</time>
      </trkpt>
      <trkpt lat="46.10564" lon="3.73344">
        <ele>659.36</ele>
        <time>2013-04-06T13:30:25Z</time>
      </trkpt>
      <trkpt lat="46.10579" lon="3.73366">
        <ele>662.46</ele>
        <time>2013-04-06T13:30:32Z</time>
      </trkpt>
      <trkpt lat="46.10591" lon="3.73387">
        <ele>665.11</ele>
        <time>2013-04-06T13:30:38Z</time>
      </trkpt>
      <trkpt lat="46.10599" lon="3.73411">
        <ele>667.15</ele>
        <time>2013-04-06T13:30:43Z</time>
      </trkpt>
      <trkpt lat="46.10608" lon="3.73434">
        <ele>668.8</ele>
        <time>2013-04-06T13:30:48Z</time>
      </trkpt>
      <trkpt lat="46.10614" lon="3.73462">
        <ele>671.17</ele>
        <time>2013-04-06T13:30:54Z</time>
      </trkpt>
      <trkpt lat="46.1062" lon="3.73488">
        <ele>674.02</ele>
        <time>2013-04-06T13:31:01Z</time>
      </trkpt>
      <trkpt lat="46.10625" lon="3.73516">
        <ele>676.8</ele>
        <time>2013-04-06T13:31:09Z</time>
      </trkpt>
      <trkpt lat="46.1063" lon="3.73542">
        <ele>678.71</ele>
        <time>2013-04-06T13:31:16Z</time>
      </trkpt>
      <trkpt lat="46.10635" lon="3.73567">
        <ele>679.98</ele>
        <time>2013-04-06T13:31:22Z</time>
      </trkpt>
      <trkpt lat="46.10635" lon="3.73595">
        <ele>681.16</ele>
        <time>2013-04-06T13:31:29Z</time>
      </trkpt>
      <trkpt lat="46.10627" lon="3.73619">
        <ele>683.12</ele>
        <time>2013-04-06T13:31:47Z</time>
      </trkpt>
      <trkpt lat="46.1061" lon="3.7363">
        <ele>685.42</ele>
        <time>2013-04-06T13:34:04Z</time>
      </trkpt>
      <trkpt lat="46.10591" lon="3.73632">
        <ele>687.12</ele>
        <time>2013-04-06T13:34:20Z</time>
      </trkpt>
      <trkpt lat="46.1057" lon="3.73636">
        <ele>687.5</ele>
        <time>2013-04-06T13:34:27Z</time>
      </trkpt>
      <trkpt lat="46.10552" lon="3.73634">
        <ele>687.72</ele>
        <time>2013-04-06T13:34:32Z</time>
      </trkpt>
      <trkpt lat="46.10533" lon="3.73632">
        <ele>687.58</ele>
        <time>2013-04-06T13:34:38Z</time>
      </trkpt>
      <trkpt lat="46.10512" lon="3.73625">
        <ele>687.56</ele>
        <time>2013-04-06T13:34:44Z</time>
      </trkpt>
      <trkpt lat="46.10493" lon="3.73623">
        <ele>686.73</ele>
        <time>2013-04-06T13:34:51Z</time>
      </trkpt>
      <trkpt lat="46.10475" lon="3.73623">
        <ele>685.71</ele>
        <time>2013-04-06T13:34:58Z</time>
      </trkpt>
      <trkpt lat="46.10457" lon="3.73623">
        <ele>686.51</ele>
        <time>2013-04-06T13:35:05Z</time>
      </trkpt>
      <trkpt lat="46.10438" lon="3.73617">
        <ele>688.35</ele>
        <time>2013-04-06T13:35:12Z</time>
      </trkpt>
      <trkpt lat="46.10418" lon="3.7361">
        <ele>690.72</ele>
        <time>2013-04-06T13:35:21Z</time>
      </trkpt>
      <trkpt lat="46.104" lon="3.73608">
        <ele>690.67</ele>
        <time>2013-04-06T13:35:26Z</time>
      </trkpt>
      <trkpt lat="46.1038" lon="3.73608">
        <ele>690</ele>
        <time>2013-04-06T13:35:31Z</time>
      </trkpt>
      <trkpt lat="46.10362" lon="3.73608">
        <ele>689.05</ele>
        <time>2013-04-06T13:35:37Z</time>
      </trkpt>
      <trkpt lat="46.10343" lon="3.73615">
        <ele>687.71</ele>
        <time>2013-04-06T13:35:43Z</time>
      </trkpt>
      <trkpt lat="46.10325" lon="3.73621">
        <ele>685.37</ele>
        <time>2013-04-06T13:35:50Z</time>
      </trkpt>
      <trkpt lat="46.10307" lon="3.7363">
        <ele>683.69</ele>
        <time>2013-04-06T13:35:59Z</time>
      </trkpt>
      <trkpt lat="46.1029" lon="3.7364">
        <ele>683.56</ele>
        <time>2013-04-06T13:36:10Z</time>
      </trkpt>
      <trkpt lat="46.10275" lon="3.7366">
        <ele>685.35</ele>
        <time>2013-04-06T13:36:17Z</time>
      </trkpt>
      <trkpt lat="46.10261" lon="3.73677">
        <ele>687.93</ele>
        <time>2013-04-06T13:36:23Z</time>
      </trkpt>
      <trkpt lat="46.10244" lon="3.73688">
        <ele>691.5</ele>
        <time>2013-04-06T13:36:32Z</time>
      </trkpt>
      <trkpt lat="46.10226" lon="3.73694">
        <ele>695.43</ele>
        <time>2013-04-06T13:36:44Z</time>
      </trkpt>
      <trkpt lat="46.10207" lon="3.737">
        <ele>697.33</ele>
        <time>2013-04-06T13:36:55Z</time>
      </trkpt>
      <trkpt lat="46.10191" lon="3.73713">
        <ele>699.04</ele>
        <time>2013-04-06T13:37:04Z</time>
      </trkpt>
      <trkpt lat="46.10175" lon="3.7373">
        <ele>701.77</ele>
        <time>2013-04-06T13:37:18Z</time>
      </trkpt>
      <trkpt lat="46.10159" lon="3.73743">
        <ele>705.59</ele>
        <time>2013-04-06T13:37:31Z</time>
      </trkpt>
      <trkpt lat="46.10141" lon="3.73754">
        <ele>709.18</ele>
        <time>2013-04-06T13:37:41Z</time>
      </trkpt>
      <trkpt lat="46.10124" lon="3.73763">
        <ele>711.82</ele>
        <time>2013-04-06T13:37:49Z</time>
      </trkpt>
      <trkpt lat="46.10108" lon="3.73778">
        <ele>714.74</ele>
        <time>2013-04-06T13:37:58Z</time>
      </trkpt>
      <trkpt lat="46.10091" lon="3.73788">
        <ele>718.13</ele>
        <time>2013-04-06T13:38:06Z</time>
      </trkpt>
      <trkpt lat="46.10074" lon="3.73803">
        <ele>720.89</ele>
        <time>2013-04-06T13:38:12Z</time>
      </trkpt>
      <trkpt lat="46.10057" lon="3.73818">
        <ele>723.98</ele>
        <time>2013-04-06T13:38:19Z</time>
      </trkpt>
      <trkpt lat="46.1004" lon="3.73831">
        <ele>726.8</ele>
        <time>2013-04-06T13:38:27Z</time>
      </trkpt>
      <trkpt lat="46.10022" lon="3.73842">
        <ele>729.92</ele>
        <time>2013-04-06T13:38:38Z</time>
      </trkpt>
      <trkpt lat="46.10004" lon="3.73851">
        <ele>732.24</ele>
        <time>2013-04-06T13:38:51Z</time>
      </trkpt>
      <trkpt lat="46.09985" lon="3.73855">
        <ele>734.87</ele>
        <time>2013-04-06T13:39:05Z</time>
      </trkpt>
      <trkpt lat="46.09965" lon="3.73853">
        <ele>736.9</ele>
        <time>2013-04-06T13:39:18Z</time>
      </trkpt>
      <trkpt lat="46.09947" lon="3.73846">
        <ele>738.45</ele>
        <time>2013-04-06T13:39:34Z</time>
      </trkpt>
      <trkpt lat="46.09929" lon="3.73848">
        <ele>740.07</ele>
        <time>2013-04-06T13:39:49Z</time>
      </trkpt>
      <trkpt lat="46.09913" lon="3.73861">
        <ele>742.55</ele>
        <time>2013-04-06T13:40:00Z</time>
      </trkpt>
      <trkpt lat="46.09895" lon="3.73876">
        <ele>745.42</ele>
        <time>2013-04-06T13:40:11Z</time>
      </trkpt>
      <trkpt lat="46.09878" lon="3.73889">
        <ele>748.48</ele>
        <time>2013-04-06T13:40:21Z</time>
      </trkpt>
      <trkpt lat="46.09861" lon="3.73898">
        <ele>751.82</ele>
        <time>2013-04-06T13:40:31Z</time>
      </trkpt>
      <trkpt lat="46.09845" lon="3.73911">
        <ele>754.98</ele>
        <time>2013-04-06T13:40:43Z</time>
      </trkpt>
      <trkpt lat="46.09836" lon="3.73934">
        <ele>757.23</ele>
        <time>2013-04-06T13:40:54Z</time>
      </trkpt>
      <trkpt lat="46.09826" lon="3.73956">
        <ele>759.84</ele>
        <time>2013-04-06T13:41:05Z</time>
      </trkpt>
      <trkpt lat="46.09811" lon="3.73973">
        <ele>765.3</ele>
        <time>2013-04-06T13:41:18Z</time>
      </trkpt>
      <trkpt lat="46.09797" lon="3.73992">
        <ele>769.24</ele>
        <time>2013-04-06T13:41:26Z</time>
      </trkpt>
      <trkpt lat="46.09785" lon="3.74014">
        <ele>775.08</ele>
        <time>2013-04-06T13:41:38Z</time>
      </trkpt>
      <trkpt lat="46.09774" lon="3.74035">
        <ele>779.85</ele>
        <time>2013-04-06T13:41:52Z</time>
      </trkpt>
      <trkpt lat="46.09767" lon="3.74059">
        <ele>783.05</ele>
        <time>2013-04-06T13:42:07Z</time>
      </trkpt>
      <trkpt lat="46.09756" lon="3.74082">
        <ele>785.88</ele>
        <time>2013-04-06T13:42:19Z</time>
      </trkpt>
      <trkpt lat="46.09747" lon="3.74106">
        <ele>789.97</ele>
        <time>2013-04-06T13:42:34Z</time>
      </trkpt>
      <trkpt lat="46.0973" lon="3.74115">
        <ele>794.29</ele>
        <time>2013-04-06T13:42:54Z</time>
      </trkpt>
      <trkpt lat="46.09711" lon="3.74119">
        <ele>796.49</ele>
        <time>2013-04-06T13:43:04Z</time>
      </trkpt>
      <trkpt lat="46.09692" lon="3.74117">
        <ele>800.36</ele>
        <time>2013-04-06T13:43:14Z</time>
      </trkpt>
      <trkpt lat="46.09673" lon="3.74117">
        <ele>805.54</ele>
        <time>2013-04-06T13:43:27Z</time>
      </trkpt>
      <trkpt lat="46.09655" lon="3.74121">
        <ele>809.39</ele>
        <time>2013-04-06T13:43:39Z</time>
      </trkpt>
      <trkpt lat="46.09637" lon="3.74125">
        <ele>812.23</ele>
        <time>2013-04-06T13:43:52Z</time>
      </trkpt>
      <trkpt lat="46.09619" lon="3.74136">
        <ele>814.28</ele>
        <time>2013-04-06T13:44:05Z</time>
      </trkpt>
      <trkpt lat="46.09603" lon="3.74149">
        <ele>815.4</ele>
        <time>2013-04-06T13:44:15Z</time>
      </trkpt>
      <trkpt lat="46.09585" lon="3.74162">
        <ele>816.36</ele>
        <time>2013-04-06T13:44:22Z</time>
      </trkpt>
      <trkpt lat="46.09567" lon="3.74164">
        <ele>817.35</ele>
        <time>2013-04-06T13:44:28Z</time>
      </trkpt>
      <trkpt lat="46.09548" lon="3.74168">
        <ele>820.56</ele>
        <time>2013-04-06T13:44:37Z</time>
      </trkpt>
      <trkpt lat="46.09533" lon="3.74153">
        <ele>822.24</ele>
        <time>2013-04-06T13:44:46Z</time>
      </trkpt>
      <trkpt lat="46.09515" lon="3.74149">
        <ele>821.63</ele>
        <time>2013-04-06T13:45:04Z</time>
      </trkpt>
      <trkpt lat="46.09496" lon="3.74155">
        <ele>819.59</ele>
        <time>2013-04-06T13:45:31Z</time>
      </trkpt>
      <trkpt lat="46.0948" lon="3.74168">
        <ele>817.04</ele>
        <time>2013-04-06T13:45:50Z</time>
      </trkpt>
      <trkpt lat="46.09464" lon="3.74181">
        <ele>815.64</ele>
        <time>2013-04-06T13:46:03Z</time>
      </trkpt>
      <trkpt lat="46.09446" lon="3.74185">
        <ele>814.13</ele>
        <time>2013-04-06T13:46:20Z</time>
      </trkpt>
      <trkpt lat="46.09428" lon="3.74196">
        <ele>813.56</ele>
        <time>2013-04-06T13:46:36Z</time>
      </trkpt>
      <trkpt lat="46.09412" lon="3.74209">
        <ele>812.6</ele>
        <time>2013-04-06T13:46:47Z</time>
      </trkpt>
      <trkpt lat="46.09394" lon="3.74218">
        <ele>812.81</ele>
        <time>2013-04-06T13:46:57Z</time>
      </trkpt>
      <trkpt lat="46.09378" lon="3.7423">
        <ele>814.68</ele>
        <time>2013-04-06T13:47:05Z</time>
      </trkpt>
      <trkpt lat="46.09364" lon="3.74248">
        <ele>817.92</ele>
        <time>2013-04-06T13:47:16Z</time>
      </trkpt>
      <trkpt lat="46.09347" lon="3.7426">
        <ele>820.94</ele>
        <time>2013-04-06T13:47:28Z</time>
      </trkpt>
      <trkpt lat="46.09329" lon="3.74263">
        <ele>822.73</ele>
        <time>2013-04-06T13:47:35Z</time>
      </trkpt>
      <trkpt lat="46.09311" lon="3.74265">
        <ele>823.98</ele>
        <time>2013-04-06T13:47:41Z</time>
      </trkpt>
      <trkpt lat="46.09294" lon="3.74278">
        <ele>826.1</ele>
        <time>2013-04-06T13:47:47Z</time>
      </trkpt>
      <trkpt lat="46.09277" lon="3.74295">
        <ele>828.56</ele>
        <time>2013-04-06T13:47:54Z</time>
      </trkpt>
      <trkpt lat="46.09261" lon="3.7431">
        <ele>831.04</ele>
        <time>2013-04-06T13:48:02Z</time>
      </trkpt>
      <trkpt lat="46.09249" lon="3.74331">
        <ele>833.73</ele>
        <time>2013-04-06T13:48:12Z</time>
      </trkpt>
      <trkpt lat="46.09236" lon="3.74353">
        <ele>836.03</ele>
        <time>2013-04-06T13:48:24Z</time>
      </trkpt>
      <trkpt lat="46.09226" lon="3.74378">
        <ele>837.1</ele>
        <time>2013-04-06T13:48:34Z</time>
      </trkpt>
      <trkpt lat="46.09216" lon="3.74402">
        <ele>838.95</ele>
        <time>2013-04-06T13:48:42Z</time>
      </trkpt>
      <trkpt lat="46.09208" lon="3.74426">
        <ele>840.81</ele>
        <time>2013-04-06T13:48:51Z</time>
      </trkpt>
      <trkpt lat="46.09198" lon="3.74449">
        <ele>844.09</ele>
        <time>2013-04-06T13:49:01Z</time>
      </trkpt>
      <trkpt lat="46.09188" lon="3.74473">
        <ele>848.25</ele>
        <time>2013-04-06T13:49:13Z</time>
      </trkpt>
      <trkpt lat="46.09178" lon="3.74494">
        <ele>851.98</ele>
        <time>2013-04-06T13:49:39Z</time>
      </trkpt>
      <trkpt lat="46.0917" lon="3.74522">
        <ele>863.38</ele>
        <time>2013-04-06T13:55:39Z</time>
      </trkpt>
      <trkpt lat="46.09159" lon="3.74548">
        <ele>865.87</ele>
        <time>2013-04-06T13:55:44Z</time>
      </trkpt>
      <trkpt lat="46.09148" lon="3.74569">
        <ele>867.15</ele>
        <time>2013-04-06T13:55:49Z</time>
      </trkpt>
      <trkpt lat="46.09139" lon="3.74593">
        <ele>867.48</ele>
        <time>2013-04-06T13:55:55Z</time>
      </trkpt>
      <trkpt lat="46.09138" lon="3.74634">
        <ele>867.3</ele>
        <time>2013-04-06T13:56:09Z</time>
      </trkpt>
      <trkpt lat="46.09151" lon="3.74668">
        <ele>866.31</ele>
        <time>2013-04-06T13:56:26Z</time>
      </trkpt>
      <trkpt lat="46.09147" lon="3.74698">
        <ele>866.87</ele>
        <time>2013-04-06T13:58:19Z</time>
      </trkpt>
      <trkpt lat="46.09139" lon="3.74732">
        <ele>868.97</ele>
        <time>2013-04-06T13:58:22Z</time>
      </trkpt>
      <trkpt lat="46.09127" lon="3.74763">
        <ele>870.46</ele>
        <time>2013-04-06T13:58:25Z</time>
      </trkpt>
      <trkpt lat="46.09118" lon="3.7479">
        <ele>870.66</ele>
        <time>2013-04-06T13:58:28Z</time>
      </trkpt>
      <trkpt lat="46.0911" lon="3.74816">
        <ele>870.16</ele>
        <time>2013-04-06T13:58:31Z</time>
      </trkpt>
      <trkpt lat="46.09102" lon="3.74844">
        <ele>869.23</ele>
        <time>2013-04-06T13:58:34Z</time>
      </trkpt>
      <trkpt lat="46.09091" lon="3.74868">
        <ele>868.01</ele>
        <time>2013-04-06T13:58:37Z</time>
      </trkpt>
      <trkpt lat="46.09081" lon="3.74893">
        <ele>866.22</ele>
        <time>2013-04-06T13:58:42Z</time>
      </trkpt>
      <trkpt lat="46.09068" lon="3.74913">
        <ele>864.63</ele>
        <time>2013-04-06T13:58:49Z</time>
      </trkpt>
      <trkpt lat="46.09054" lon="3.74936">
        <ele>863.45</ele>
        <time>2013-04-06T13:58:56Z</time>
      </trkpt>
      <trkpt lat="46.09044" lon="3.7496">
        <ele>860.83</ele>
        <time>2013-04-06T13:59:06Z</time>
      </trkpt>
      <trkpt lat="46.09039" lon="3.74992">
        <ele>857.73</ele>
        <time>2013-04-06T13:59:16Z</time>
      </trkpt>
      <trkpt lat="46.09032" lon="3.75022">
        <ele>856.76</ele>
        <time>2013-04-06T13:59:22Z</time>
      </trkpt>
      <trkpt lat="46.09022" lon="3.75048">
        <ele>856.59</ele>
        <time>2013-04-06T13:59:28Z</time>
      </trkpt>
      <trkpt lat="46.09009" lon="3.75072">
        <ele>856.56</ele>
        <time>2013-04-06T13:59:34Z</time>
      </trkpt>
      <trkpt lat="46.08995" lon="3.75097">
        <ele>857.24</ele>
        <time>2013-04-06T13:59:40Z</time>
      </trkpt>
      <trkpt lat="46.08984" lon="3.75123">
        <ele>857.53</ele>
        <time>2013-04-06T13:59:49Z</time>
      </trkpt>
      <trkpt lat="46.08978" lon="3.75151">
        <ele>857.55</ele>
        <time>2013-04-06T14:00:00Z</time>
      </trkpt>
      <trkpt lat="46.08985" lon="3.75177">
        <ele>858.62</ele>
        <time>2013-04-06T14:00:11Z</time>
      </trkpt>
      <trkpt lat="46.08991" lon="3.75202">
        <ele>859.71</ele>
        <time>2013-04-06T14:00:19Z</time>
      </trkpt>
      <trkpt lat="46.08996" lon="3.75232">
        <ele>860.47</ele>
        <time>2013-04-06T14:00:27Z</time>
      </trkpt>
      <trkpt lat="46.09004" lon="3.75258">
        <ele>860.53</ele>
        <time>2013-04-06T14:00:32Z</time>
      </trkpt>
      <trkpt lat="46.09022" lon="3.75275">
        <ele>857.5</ele>
        <time>2013-04-06T14:00:37Z</time>
      </trkpt>
      <trkpt lat="46.0903" lon="3.75303">
        <ele>853.73</ele>
        <time>2013-04-06T14:00:42Z</time>
      </trkpt>
      <trkpt lat="46.09035" lon="3.75333">
        <ele>851.83</ele>
        <time>2013-04-06T14:00:48Z</time>
      </trkpt>
      <trkpt lat="46.09028" lon="3.75361">
        <ele>850.43</ele>
        <time>2013-04-06T14:00:56Z</time>
      </trkpt>
      <trkpt lat="46.09015" lon="3.75389">
        <ele>849.96</ele>
        <time>2013-04-06T14:01:02Z</time>
      </trkpt>
      <trkpt lat="46.09" lon="3.75413">
        <ele>850.7</ele>
        <time>2013-04-06T14:01:08Z</time>
      </trkpt>
      <trkpt lat="46.08986" lon="3.75436">
        <ele>851.65</ele>
        <time>2013-04-06T14:01:14Z</time>
      </trkpt>
      <trkpt lat="46.08967" lon="3.7546">
        <ele>853.25</ele>
        <time>2013-04-06T14:01:23Z</time>
      </trkpt>
      <trkpt lat="46.08951" lon="3.75479">
        <ele>854.54</ele>
        <time>2013-04-06T14:01:31Z</time>
      </trkpt>
      <trkpt lat="46.08933" lon="3.75505">
        <ele>855.73</ele>
        <time>2013-04-06T14:01:40Z</time>
      </trkpt>
      <trkpt lat="46.08919" lon="3.75526">
        <ele>856.69</ele>
        <time>2013-04-06T14:01:47Z</time>
      </trkpt>
      <trkpt lat="46.08906" lon="3.75546">
        <ele>858.56</ele>
        <time>2013-04-06T14:01:56Z</time>
      </trkpt>
      <trkpt lat="46.08891" lon="3.75563">
        <ele>860.58</ele>
        <time>2013-04-06T14:02:07Z</time>
      </trkpt>
      <trkpt lat="46.08873" lon="3.75578">
        <ele>862.49</ele>
        <time>2013-04-06T14:02:16Z</time>
      </trkpt>
      <trkpt lat="46.08854" lon="3.75591">
        <ele>863.66</ele>
        <time>2013-04-06T14:02:23Z</time>
      </trkpt>
      <trkpt lat="46.08834" lon="3.75602">
        <ele>864.68</ele>
        <time>2013-04-06T14:02:30Z</time>
      </trkpt>
      <trkpt lat="46.08817" lon="3.75612">
        <ele>865.4</ele>
        <time>2013-04-06T14:02:36Z</time>
      </trkpt>
      <trkpt lat="46.08797" lon="3.75627">
        <ele>865.79</ele>
        <time>2013-04-06T14:02:44Z</time>
      </trkpt>
      <trkpt lat="46.0878" lon="3.75642">
        <ele>866.89</ele>
        <time>2013-04-06T14:02:48Z</time>
      </trkpt>
      <trkpt lat="46.08761" lon="3.75662">
        <ele>868.17</ele>
        <time>2013-04-06T14:02:52Z</time>
      </trkpt>
      <trkpt lat="46.08745" lon="3.75677">
        <ele>869.41</ele>
        <time>2013-04-06T14:02:55Z</time>
      </trkpt>
      <trkpt lat="46.08731" lon="3.75696">
        <ele>870.65</ele>
        <time>2013-04-06T14:02:58Z</time>
      </trkpt>
      <trkpt lat="46.08715" lon="3.75713">
        <ele>872.2</ele>
        <time>2013-04-06T14:03:02Z</time>
      </trkpt>
      <trkpt lat="46.08697" lon="3.75743">
        <ele>874.49</ele>
        <time>2013-04-06T14:03:12Z</time>
      </trkpt>
      <trkpt lat="46.08685" lon="3.75767">
        <ele>876.34</ele>
        <time>2013-04-06T14:03:16Z</time>
      </trkpt>
      <trkpt lat="46.08678" lon="3.7579">
        <ele>876.02</ele>
        <time>2013-04-06T14:03:19Z</time>
      </trkpt>
      <trkpt lat="46.08672" lon="3.7582">
        <ele>875.75</ele>
        <time>2013-04-06T14:03:22Z</time>
      </trkpt>
      <trkpt lat="46.08666" lon="3.75855">
        <ele>875.2</ele>
        <time>2013-04-06T14:03:25Z</time>
      </trkpt>
      <trkpt lat="46.08662" lon="3.7588">
        <ele>874.67</ele>
        <time>2013-04-06T14:03:27Z</time>
      </trkpt>
      <trkpt lat="46.08654" lon="3.75904">
        <ele>873.49</ele>
        <time>2013-04-06T14:03:29Z</time>
      </trkpt>
      <trkpt lat="46.08642" lon="3.75936">
        <ele>872.12</ele>
        <time>2013-04-06T14:03:32Z</time>
      </trkpt>
      <trkpt lat="46.08632" lon="3.75962">
        <ele>871.21</ele>
        <time>2013-04-06T14:03:35Z</time>
      </trkpt>
      <trkpt lat="46.0862" lon="3.75988">
        <ele>870.83</ele>
        <time>2013-04-06T14:03:38Z</time>
      </trkpt>
      <trkpt lat="46.0861" lon="3.76014">
        <ele>870.09</ele>
        <time>2013-04-06T14:03:41Z</time>
      </trkpt>
      <trkpt lat="46.08607" lon="3.76044">
        <ele>868.46</ele>
        <time>2013-04-06T14:03:45Z</time>
      </trkpt>
      <trkpt lat="46.08603" lon="3.76069">
        <ele>866.92</ele>
        <time>2013-04-06T14:03:48Z</time>
      </trkpt>
      <trkpt lat="46.08597" lon="3.76099">
        <ele>865.41</ele>
        <time>2013-04-06T14:03:52Z</time>
      </trkpt>
      <trkpt lat="46.08588" lon="3.76123">
        <ele>864.82</ele>
        <time>2013-04-06T14:03:56Z</time>
      </trkpt>
      <trkpt lat="46.08577" lon="3.76147">
        <ele>864.62</ele>
        <time>2013-04-06T14:04:01Z</time>
      </trkpt>
      <trkpt lat="46.08563" lon="3.7617">
        <ele>864.56</ele>
        <time>2013-04-06T14:04:07Z</time>
      </trkpt>
      <trkpt lat="46.08547" lon="3.76187">
        <ele>864.55</ele>
        <time>2013-04-06T14:04:15Z</time>
      </trkpt>
      <trkpt lat="46.08529" lon="3.76194">
        <ele>864.55</ele>
        <time>2013-04-06T14:04:20Z</time>
      </trkpt>
      <trkpt lat="46.08504" lon="3.76183">
        <ele>863.63</ele>
        <time>2013-04-06T14:04:31Z</time>
      </trkpt>
      <trkpt lat="46.08487" lon="3.76168">
        <ele>863.56</ele>
        <time>2013-04-06T14:04:43Z</time>
      </trkpt>
      <trkpt lat="46.08464" lon="3.76157">
        <ele>864.45</ele>
        <time>2013-04-06T14:04:59Z</time>
      </trkpt>
      <trkpt lat="46.08447" lon="3.76144">
        <ele>864.55</ele>
        <time>2013-04-06T14:05:09Z</time>
      </trkpt>
      <trkpt lat="46.08427" lon="3.76138">
        <ele>864.55</ele>
        <time>2013-04-06T14:05:19Z</time>
      </trkpt>
      <trkpt lat="46.08406" lon="3.76142">
        <ele>864.8</ele>
        <time>2013-04-06T14:05:28Z</time>
      </trkpt>
      <trkpt lat="46.08386" lon="3.76147">
        <ele>867.52</ele>
        <time>2013-04-06T14:05:37Z</time>
      </trkpt>
      <trkpt lat="46.08364" lon="3.76151">
        <ele>871.58</ele>
        <time>2013-04-06T14:05:47Z</time>
      </trkpt>
      <trkpt lat="46.08344" lon="3.76157">
        <ele>875.13</ele>
        <time>2013-04-06T14:05:55Z</time>
      </trkpt>
      <trkpt lat="46.08324" lon="3.76164">
        <ele>877.56</ele>
        <time>2013-04-06T14:06:02Z</time>
      </trkpt>
      <trkpt lat="46.08304" lon="3.76166">
        <ele>879.68</ele>
        <time>2013-04-06T14:06:09Z</time>
      </trkpt>
      <trkpt lat="46.08284" lon="3.76166">
        <ele>881.55</ele>
        <time>2013-04-06T14:06:16Z</time>
      </trkpt>
      <trkpt lat="46.08265" lon="3.76166">
        <ele>882.81</ele>
        <time>2013-04-06T14:06:22Z</time>
      </trkpt>
      <trkpt lat="46.08244" lon="3.76166">
        <ele>884.14</ele>
        <time>2013-04-06T14:06:29Z</time>
      </trkpt>
      <trkpt lat="46.08225" lon="3.76168">
        <ele>885.32</ele>
        <time>2013-04-06T14:06:36Z</time>
      </trkpt>
      <trkpt lat="46.08206" lon="3.76166">
        <ele>886.43</ele>
        <time>2013-04-06T14:06:44Z</time>
      </trkpt>
      <trkpt lat="46.08187" lon="3.76162">
        <ele>887.3</ele>
        <time>2013-04-06T14:06:51Z</time>
      </trkpt>
      <trkpt lat="46.08169" lon="3.76166">
        <ele>888.31</ele>
        <time>2013-04-06T14:07:03Z</time>
      </trkpt>
      <trkpt lat="46.08151" lon="3.76174">
        <ele>888.53</ele>
        <time>2013-04-06T14:07:12Z</time>
      </trkpt>
      <trkpt lat="46.08134" lon="3.76185">
        <ele>889.37</ele>
        <time>2013-04-06T14:07:18Z</time>
      </trkpt>
      <trkpt lat="46.08114" lon="3.76198">
        <ele>889.53</ele>
        <time>2013-04-06T14:07:25Z</time>
      </trkpt>
      <trkpt lat="46.08097" lon="3.76209">
        <ele>889.55</ele>
        <time>2013-04-06T14:07:33Z</time>
      </trkpt>
      <trkpt lat="46.0808" lon="3.76217">
        <ele>890.38</ele>
        <time>2013-04-06T14:07:48Z</time>
      </trkpt>
      <trkpt lat="46.08078" lon="3.76189">
        <ele>894.12</ele>
        <time>2013-04-06T14:10:40Z</time>
      </trkpt>
      <trkpt lat="46.08073" lon="3.76164">
        <ele>894.48</ele>
        <time>2013-04-06T14:10:46Z</time>
      </trkpt>
      <trkpt lat="46.08068" lon="3.76134">
        <ele>894.54</ele>
        <time>2013-04-06T14:10:53Z</time>
      </trkpt>
      <trkpt lat="46.08063" lon="3.76108">
        <ele>893.72</ele>
        <time>2013-04-06T14:10:57Z</time>
      </trkpt>
      <trkpt lat="46.08061" lon="3.7608">
        <ele>891.8</ele>
        <time>2013-04-06T14:11:01Z</time>
      </trkpt>
      <trkpt lat="46.08057" lon="3.76052">
        <ele>889.58</ele>
        <time>2013-04-06T14:11:06Z</time>
      </trkpt>
      <trkpt lat="46.08052" lon="3.7602">
        <ele>886.82</ele>
        <time>2013-04-06T14:11:10Z</time>
      </trkpt>
      <trkpt lat="46.0805" lon="3.7599">
        <ele>884.68</ele>
        <time>2013-04-06T14:11:13Z</time>
      </trkpt>
      <trkpt lat="46.0805" lon="3.75956">
        <ele>881.61</ele>
        <time>2013-04-06T14:11:16Z</time>
      </trkpt>
      <trkpt lat="46.08048" lon="3.7593">
        <ele>879.58</ele>
        <time>2013-04-06T14:11:18Z</time>
      </trkpt>
      <trkpt lat="46.08042" lon="3.759">
        <ele>877</ele>
        <time>2013-04-06T14:11:21Z</time>
      </trkpt>
      <trkpt lat="46.08032" lon="3.75868">
        <ele>874.76</ele>
        <time>2013-04-06T14:11:24Z</time>
      </trkpt>
      <trkpt lat="46.08018" lon="3.75842">
        <ele>872.66</ele>
        <time>2013-04-06T14:11:27Z</time>
      </trkpt>
      <trkpt lat="46.08006" lon="3.75814">
        <ele>870.17</ele>
        <time>2013-04-06T14:11:30Z</time>
      </trkpt>
      <trkpt lat="46.07995" lon="3.75784">
        <ele>867.39</ele>
        <time>2013-04-06T14:11:33Z</time>
      </trkpt>
      <trkpt lat="46.07986" lon="3.7576">
        <ele>864.74</ele>
        <time>2013-04-06T14:11:36Z</time>
      </trkpt>
      <trkpt lat="46.07975" lon="3.75739">
        <ele>861.96</ele>
        <time>2013-04-06T14:11:39Z</time>
      </trkpt>
      <trkpt lat="46.07964" lon="3.75717">
        <ele>857.43</ele>
        <time>2013-04-06T14:11:43Z</time>
      </trkpt>
      <trkpt lat="46.07954" lon="3.75696">
        <ele>852.83</ele>
        <time>2013-04-06T14:11:47Z</time>
      </trkpt>
      <trkpt lat="46.07946" lon="3.75668">
        <ele>849.22</ele>
        <time>2013-04-06T14:11:51Z</time>
      </trkpt>
      <trkpt lat="46.07937" lon="3.7564">
        <ele>846.11</ele>
        <time>2013-04-06T14:11:56Z</time>
      </trkpt>
      <trkpt lat="46.07921" lon="3.75627">
        <ele>842.1</ele>
        <time>2013-04-06T14:11:59Z</time>
      </trkpt>
      <trkpt lat="46.079" lon="3.75612">
        <ele>838.21</ele>
        <time>2013-04-06T14:12:02Z</time>
      </trkpt>
      <trkpt lat="46.07876" lon="3.75595">
        <ele>834.25</ele>
        <time>2013-04-06T14:12:05Z</time>
      </trkpt>
      <trkpt lat="46.07853" lon="3.75582">
        <ele>831.1</ele>
        <time>2013-04-06T14:12:08Z</time>
      </trkpt>
      <trkpt lat="46.07828" lon="3.75571">
        <ele>829.05</ele>
        <time>2013-04-06T14:12:11Z</time>
      </trkpt>
      <trkpt lat="46.07807" lon="3.75561">
        <ele>827.5</ele>
        <time>2013-04-06T14:12:14Z</time>
      </trkpt>
      <trkpt lat="46.07785" lon="3.75535">
        <ele>823.55</ele>
        <time>2013-04-06T14:13:30Z</time>
      </trkpt>
      <trkpt lat="46.07773" lon="3.75514">
        <ele>823.3</ele>
        <time>2013-04-06T14:13:33Z</time>
      </trkpt>
      <trkpt lat="46.07767" lon="3.75488">
        <ele>822.87</ele>
        <time>2013-04-06T14:13:36Z</time>
      </trkpt>
      <trkpt lat="46.07752" lon="3.75468">
        <ele>821.41</ele>
        <time>2013-04-06T14:13:42Z</time>
      </trkpt>
      <trkpt lat="46.07737" lon="3.75449">
        <ele>818.93</ele>
        <time>2013-04-06T14:13:48Z</time>
      </trkpt>
      <trkpt lat="46.07723" lon="3.75428">
        <ele>812.66</ele>
        <time>2013-04-06T14:13:53Z</time>
      </trkpt>
      <trkpt lat="46.07709" lon="3.75408">
        <ele>800.85</ele>
        <time>2013-04-06T14:14:00Z</time>
      </trkpt>
      <trkpt lat="46.07704" lon="3.75374">
        <ele>795.72</ele>
        <time>2013-04-06T14:14:11Z</time>
      </trkpt>
      <trkpt lat="46.07686" lon="3.75361">
        <ele>792.45</ele>
        <time>2013-04-06T14:14:20Z</time>
      </trkpt>
      <trkpt lat="46.07669" lon="3.75353">
        <ele>788.24</ele>
        <time>2013-04-06T14:14:23Z</time>
      </trkpt>
      <trkpt lat="46.07652" lon="3.75342">
        <ele>783.83</ele>
        <time>2013-04-06T14:14:26Z</time>
      </trkpt>
      <trkpt lat="46.07635" lon="3.75331">
        <ele>779.78</ele>
        <time>2013-04-06T14:14:30Z</time>
      </trkpt>
      <trkpt lat="46.07617" lon="3.75314">
        <ele>777.58</ele>
        <time>2013-04-06T14:14:34Z</time>
      </trkpt>
      <trkpt lat="46.07599" lon="3.75295">
        <ele>776.55</ele>
        <time>2013-04-06T14:14:37Z</time>
      </trkpt>
      <trkpt lat="46.07582" lon="3.75271">
        <ele>775.72</ele>
        <time>2013-04-06T14:14:40Z</time>
      </trkpt>
      <trkpt lat="46.07563" lon="3.75252">
        <ele>774.8</ele>
        <time>2013-04-06T14:14:43Z</time>
      </trkpt>
      <trkpt lat="46.07542" lon="3.75243">
        <ele>773.83</ele>
        <time>2013-04-06T14:14:46Z</time>
      </trkpt>
      <trkpt lat="46.07521" lon="3.75241">
        <ele>772.38</ele>
        <time>2013-04-06T14:14:50Z</time>
      </trkpt>
      <trkpt lat="46.07501" lon="3.75243">
        <ele>770.05</ele>
        <time>2013-04-06T14:16:06Z</time>
      </trkpt>
      <trkpt lat="46.07479" lon="3.75245">
        <ele>765.54</ele>
        <time>2013-04-06T14:16:13Z</time>
      </trkpt>
      <trkpt lat="46.0746" lon="3.75228">
        <ele>759.17</ele>
        <time>2013-04-06T14:16:19Z</time>
      </trkpt>
      <trkpt lat="46.07444" lon="3.75202">
        <ele>755.43</ele>
        <time>2013-04-06T14:16:23Z</time>
      </trkpt>
      <trkpt lat="46.07431" lon="3.75181">
        <ele>752.09</ele>
        <time>2013-04-06T14:16:27Z</time>
      </trkpt>
      <trkpt lat="46.07415" lon="3.75157">
        <ele>747.1</ele>
        <time>2013-04-06T14:16:36Z</time>
      </trkpt>
      <trkpt lat="46.07406" lon="3.75134">
        <ele>745.47</ele>
        <time>2013-04-06T14:16:43Z</time>
      </trkpt>
      <trkpt lat="46.07411" lon="3.75104">
        <ele>743.46</ele>
        <time>2013-04-06T14:16:49Z</time>
      </trkpt>
      <trkpt lat="46.07417" lon="3.75078">
        <ele>739.38</ele>
        <time>2013-04-06T14:16:53Z</time>
      </trkpt>
      <trkpt lat="46.07424" lon="3.7505">
        <ele>733.67</ele>
        <time>2013-04-06T14:16:58Z</time>
      </trkpt>
      <trkpt lat="46.07433" lon="3.75018">
        <ele>730.13</ele>
        <time>2013-04-06T14:17:12Z</time>
      </trkpt>
      <trkpt lat="46.0745" lon="3.75009">
        <ele>726.25</ele>
        <time>2013-04-06T14:18:11Z</time>
      </trkpt>
      <trkpt lat="46.0747" lon="3.75001">
        <ele>723.73</ele>
        <time>2013-04-06T14:18:17Z</time>
      </trkpt>
      <trkpt lat="46.07487" lon="3.74992">
        <ele>721.56</ele>
        <time>2013-04-06T14:18:23Z</time>
      </trkpt>
      <trkpt lat="46.07506" lon="3.74986">
        <ele>716.68</ele>
        <time>2013-04-06T14:18:30Z</time>
      </trkpt>
      <trkpt lat="46.07525" lon="3.74981">
        <ele>711.89</ele>
        <time>2013-04-06T14:18:36Z</time>
      </trkpt>
      <trkpt lat="46.07544" lon="3.74973">
        <ele>709.28</ele>
        <time>2013-04-06T14:18:41Z</time>
      </trkpt>
      <trkpt lat="46.07565" lon="3.74964">
        <ele>707.42</ele>
        <time>2013-04-06T14:18:47Z</time>
      </trkpt>
      <trkpt lat="46.0758" lon="3.74947">
        <ele>706.27</ele>
        <time>2013-04-06T14:18:53Z</time>
      </trkpt>
      <trkpt lat="46.07596" lon="3.74923">
        <ele>704.51</ele>
        <time>2013-04-06T14:19:04Z</time>
      </trkpt>
      <trkpt lat="46.07602" lon="3.74893">
        <ele>701.73</ele>
        <time>2013-04-06T14:21:46Z</time>
      </trkpt>
      <trkpt lat="46.07607" lon="3.74863">
        <ele>700.58</ele>
        <time>2013-04-06T14:21:51Z</time>
      </trkpt>
      <trkpt lat="46.07609" lon="3.74838">
        <ele>698.49</ele>
        <time>2013-04-06T14:22:01Z</time>
      </trkpt>
      <trkpt lat="46.07621" lon="3.74816">
        <ele>696.06</ele>
        <time>2013-04-06T14:22:12Z</time>
      </trkpt>
      <trkpt lat="46.07627" lon="3.7479">
        <ele>689.48</ele>
        <time>2013-04-06T14:27:41Z</time>
      </trkpt>
      <trkpt lat="46.07633" lon="3.74763">
        <ele>688.43</ele>
        <time>2013-04-06T14:27:48Z</time>
      </trkpt>
      <trkpt lat="46.07636" lon="3.74737">
        <ele>687.09</ele>
        <time>2013-04-06T14:27:55Z</time>
      </trkpt>
      <trkpt lat="46.07642" lon="3.74711">
        <ele>685.35</ele>
        <time>2013-04-06T14:28:03Z</time>
      </trkpt>
      <trkpt lat="46.0765" lon="3.74687">
        <ele>683.17</ele>
        <time>2013-04-06T14:28:12Z</time>
      </trkpt>
      <trkpt lat="46.07662" lon="3.74664">
        <ele>681.46</ele>
        <time>2013-04-06T14:28:18Z</time>
      </trkpt>
      <trkpt lat="46.07672" lon="3.7464">
        <ele>679.07</ele>
        <time>2013-04-06T14:28:23Z</time>
      </trkpt>
      <trkpt lat="46.07683" lon="3.74617">
        <ele>676.78</ele>
        <time>2013-04-06T14:28:26Z</time>
      </trkpt>
      <trkpt lat="46.07698" lon="3.74599">
        <ele>675.08</ele>
        <time>2013-04-06T14:28:31Z</time>
      </trkpt>
      <trkpt lat="46.07719" lon="3.74599">
        <ele>674.65</ele>
        <time>2013-04-06T14:28:37Z</time>
      </trkpt>
      <trkpt lat="46.07741" lon="3.74589">
        <ele>675.15</ele>
        <time>2013-04-06T14:28:43Z</time>
      </trkpt>
      <trkpt lat="46.07759" lon="3.74589">
        <ele>676.3</ele>
        <time>2013-04-06T14:28:49Z</time>
      </trkpt>
      <trkpt lat="46.07781" lon="3.74587">
        <ele>677.28</ele>
        <time>2013-04-06T14:28:56Z</time>
      </trkpt>
      <trkpt lat="46.07799" lon="3.74576">
        <ele>679.3</ele>
        <time>2013-04-06T14:29:36Z</time>
      </trkpt>
      <trkpt lat="46.07819" lon="3.74559">
        <ele>681.67</ele>
        <time>2013-04-06T14:29:40Z</time>
      </trkpt>
      <trkpt lat="46.07837" lon="3.74542">
        <ele>684.04</ele>
        <time>2013-04-06T14:29:45Z</time>
      </trkpt>
      <trkpt lat="46.07856" lon="3.74527">
        <ele>687.4</ele>
        <time>2013-04-06T14:29:56Z</time>
      </trkpt>
      <trkpt lat="46.07873" lon="3.74518">
        <ele>688.53</ele>
        <time>2013-04-06T14:30:01Z</time>
      </trkpt>
      <trkpt lat="46.0789" lon="3.74505">
        <ele>689.67</ele>
        <time>2013-04-06T14:30:08Z</time>
      </trkpt>
      <trkpt lat="46.07914" lon="3.7449">
        <ele>690.49</ele>
        <time>2013-04-06T14:30:17Z</time>
      </trkpt>
      <trkpt lat="46.07928" lon="3.74462">
        <ele>689.86</ele>
        <time>2013-04-06T14:30:24Z</time>
      </trkpt>
      <trkpt lat="46.07926" lon="3.74436">
        <ele>689.43</ele>
        <time>2013-04-06T14:30:27Z</time>
      </trkpt>
      <trkpt lat="46.07925" lon="3.74404">
        <ele>687.11</ele>
        <time>2013-04-06T14:30:30Z</time>
      </trkpt>
      <trkpt lat="46.07925" lon="3.74376">
        <ele>681.76</ele>
        <time>2013-04-06T14:30:33Z</time>
      </trkpt>
      <trkpt lat="46.07924" lon="3.74346">
        <ele>676.9</ele>
        <time>2013-04-06T14:30:36Z</time>
      </trkpt>
      <trkpt lat="46.07921" lon="3.74316">
        <ele>673.12</ele>
        <time>2013-04-06T14:30:39Z</time>
      </trkpt>
      <trkpt lat="46.07916" lon="3.74288">
        <ele>670.23</ele>
        <time>2013-04-06T14:30:42Z</time>
      </trkpt>
      <trkpt lat="46.079" lon="3.74267">
        <ele>668.25</ele>
        <time>2013-04-06T14:30:45Z</time>
      </trkpt>
      <trkpt lat="46.07895" lon="3.74237">
        <ele>666.58</ele>
        <time>2013-04-06T14:30:48Z</time>
      </trkpt>
      <trkpt lat="46.07895" lon="3.74205">
        <ele>664.58</ele>
        <time>2013-04-06T14:30:51Z</time>
      </trkpt>
      <trkpt lat="46.07897" lon="3.74175">
        <ele>662.14</ele>
        <time>2013-04-06T14:30:54Z</time>
      </trkpt>
      <trkpt lat="46.079" lon="3.74147">
        <ele>660.07</ele>
        <time>2013-04-06T14:30:57Z</time>
      </trkpt>
      <trkpt lat="46.07906" lon="3.74121">
        <ele>659.03</ele>
        <time>2013-04-06T14:31:01Z</time>
      </trkpt>
      <trkpt lat="46.07913" lon="3.74091">
        <ele>656.28</ele>
        <time>2013-04-06T14:31:06Z</time>
      </trkpt>
      <trkpt lat="46.07921" lon="3.74065">
        <ele>653.98</ele>
        <time>2013-04-06T14:31:10Z</time>
      </trkpt>
      <trkpt lat="46.07937" lon="3.74042">
        <ele>651.49</ele>
        <time>2013-04-06T14:31:14Z</time>
      </trkpt>
      <trkpt lat="46.07955" lon="3.74024">
        <ele>649.59</ele>
        <time>2013-04-06T14:31:18Z</time>
      </trkpt>
      <trkpt lat="46.07972" lon="3.74009">
        <ele>648.2</ele>
        <time>2013-04-06T14:31:22Z</time>
      </trkpt>
      <trkpt lat="46.07983" lon="3.73988">
        <ele>647.07</ele>
        <time>2013-04-06T14:31:26Z</time>
      </trkpt>
      <trkpt lat="46.07993" lon="3.73966">
        <ele>645.46</ele>
        <time>2013-04-06T14:31:30Z</time>
      </trkpt>
      <trkpt lat="46.08007" lon="3.73947">
        <ele>643.95</ele>
        <time>2013-04-06T14:31:36Z</time>
      </trkpt>
      <trkpt lat="46.08024" lon="3.73936">
        <ele>643.59</ele>
        <time>2013-04-06T14:31:44Z</time>
      </trkpt>
      <trkpt lat="46.08035" lon="3.73915">
        <ele>644.14</ele>
        <time>2013-04-06T14:31:51Z</time>
      </trkpt>
      <trkpt lat="46.08038" lon="3.73887">
        <ele>645</ele>
        <time>2013-04-06T14:31:55Z</time>
      </trkpt>
      <trkpt lat="46.08039" lon="3.73859">
        <ele>646.11</ele>
        <time>2013-04-06T14:32:00Z</time>
      </trkpt>
      <trkpt lat="46.08047" lon="3.73833">
        <ele>647.59</ele>
        <time>2013-04-06T14:32:04Z</time>
      </trkpt>
      <trkpt lat="46.08059" lon="3.7381">
        <ele>649.62</ele>
        <time>2013-04-06T14:32:08Z</time>
      </trkpt>
      <trkpt lat="46.08057" lon="3.7378">
        <ele>650.96</ele>
        <time>2013-04-06T14:32:14Z</time>
      </trkpt>
      <trkpt lat="46.0805" lon="3.73754">
        <ele>650.54</ele>
        <time>2013-04-06T14:32:18Z</time>
      </trkpt>
      <trkpt lat="46.08037" lon="3.73733">
        <ele>648.35</ele>
        <time>2013-04-06T14:32:22Z</time>
      </trkpt>
      <trkpt lat="46.08031" lon="3.73703">
        <ele>646.54</ele>
        <time>2013-04-06T14:32:26Z</time>
      </trkpt>
      <trkpt lat="46.08017" lon="3.73681">
        <ele>644.93</ele>
        <time>2013-04-06T14:32:30Z</time>
      </trkpt>
      <trkpt lat="46.08" lon="3.73668">
        <ele>644.14</ele>
        <time>2013-04-06T14:32:33Z</time>
      </trkpt>
      <trkpt lat="46.07985" lon="3.73647">
        <ele>639.8</ele>
        <time>2013-04-06T14:32:37Z</time>
      </trkpt>
      <trkpt lat="46.07985" lon="3.73617">
        <ele>632.57</ele>
        <time>2013-04-06T14:32:41Z</time>
      </trkpt>
      <trkpt lat="46.07987" lon="3.73587">
        <ele>629.25</ele>
        <time>2013-04-06T14:32:45Z</time>
      </trkpt>
      <trkpt lat="46.07984" lon="3.73561">
        <ele>627.15</ele>
        <time>2013-04-06T14:32:49Z</time>
      </trkpt>
      <trkpt lat="46.07983" lon="3.73529">
        <ele>625.38</ele>
        <time>2013-04-06T14:32:53Z</time>
      </trkpt>
      <trkpt lat="46.0798" lon="3.73503">
        <ele>625.48</ele>
        <time>2013-04-06T14:32:56Z</time>
      </trkpt>
      <trkpt lat="46.07986" lon="3.73471">
        <ele>627.04</ele>
        <time>2013-04-06T14:33:00Z</time>
      </trkpt>
      <trkpt lat="46.08002" lon="3.73443">
        <ele>628.9</ele>
        <time>2013-04-06T14:33:04Z</time>
      </trkpt>
      <trkpt lat="46.08018" lon="3.73426">
        <ele>630.31</ele>
        <time>2013-04-06T14:33:06Z</time>
      </trkpt>
      <trkpt lat="46.08036" lon="3.73413">
        <ele>631.29</ele>
        <time>2013-04-06T14:33:08Z</time>
      </trkpt>
      <trkpt lat="46.08057" lon="3.73402">
        <ele>631.84</ele>
        <time>2013-04-06T14:33:10Z</time>
      </trkpt>
      <trkpt lat="46.08075" lon="3.73391">
        <ele>631.9</ele>
        <time>2013-04-06T14:33:12Z</time>
      </trkpt>
      <trkpt lat="46.08096" lon="3.73372">
        <ele>631.26</ele>
        <time>2013-04-06T14:33:15Z</time>
      </trkpt>
      <trkpt lat="46.0811" lon="3.73348">
        <ele>630.17</ele>
        <time>2013-04-06T14:33:18Z</time>
      </trkpt>
      <trkpt lat="46.08121" lon="3.73325">
        <ele>628.11</ele>
        <time>2013-04-06T14:33:21Z</time>
      </trkpt>
      <trkpt lat="46.08127" lon="3.73293">
        <ele>624.85</ele>
        <time>2013-04-06T14:33:25Z</time>
      </trkpt>
      <trkpt lat="46.08126" lon="3.7326">
        <ele>622.96</ele>
        <time>2013-04-06T14:33:31Z</time>
      </trkpt>
      <trkpt lat="46.08124" lon="3.73235">
        <ele>622.63</ele>
        <time>2013-04-06T14:33:37Z</time>
      </trkpt>
      <trkpt lat="46.08121" lon="3.73207">
        <ele>622.56</ele>
        <time>2013-04-06T14:33:44Z</time>
      </trkpt>
      <trkpt lat="46.08128" lon="3.73183">
        <ele>622.55</ele>
        <time>2013-04-06T14:33:50Z</time>
      </trkpt>
      <trkpt lat="46.0814" lon="3.7316">
        <ele>621.73</ele>
        <time>2013-04-06T14:33:54Z</time>
      </trkpt>
      <trkpt lat="46.08151" lon="3.73136">
        <ele>620.35</ele>
        <time>2013-04-06T14:33:58Z</time>
      </trkpt>
      <trkpt lat="46.08162" lon="3.7311">
        <ele>619.74</ele>
        <time>2013-04-06T14:34:03Z</time>
      </trkpt>
      <trkpt lat="46.08173" lon="3.73085">
        <ele>619.6</ele>
        <time>2013-04-06T14:34:08Z</time>
      </trkpt>
      <trkpt lat="46.08187" lon="3.73059">
        <ele>619.81</ele>
        <time>2013-04-06T14:34:14Z</time>
      </trkpt>
      <trkpt lat="46.08199" lon="3.73035">
        <ele>620.7</ele>
        <time>2013-04-06T14:34:21Z</time>
      </trkpt>
      <trkpt lat="46.08211" lon="3.73012">
        <ele>621.69</ele>
        <time>2013-04-06T14:34:28Z</time>
      </trkpt>
      <trkpt lat="46.08226" lon="3.7299">
        <ele>622.88</ele>
        <time>2013-04-06T14:34:35Z</time>
      </trkpt>
      <trkpt lat="46.0824" lon="3.72973">
        <ele>624.01</ele>
        <time>2013-04-06T14:34:41Z</time>
      </trkpt>
      <trkpt lat="46.08253" lon="3.72954">
        <ele>625.47</ele>
        <time>2013-04-06T14:34:47Z</time>
      </trkpt>
      <trkpt lat="46.08267" lon="3.72932">
        <ele>626.8</ele>
        <time>2013-04-06T14:34:53Z</time>
      </trkpt>
      <trkpt lat="46.08282" lon="3.72913">
        <ele>628</ele>
        <time>2013-04-06T14:34:59Z</time>
      </trkpt>
      <trkpt lat="46.08297" lon="3.72898">
        <ele>628.89</ele>
        <time>2013-04-06T14:35:05Z</time>
      </trkpt>
      <trkpt lat="46.08316" lon="3.72889">
        <ele>629.15</ele>
        <time>2013-04-06T14:35:10Z</time>
      </trkpt>
      <trkpt lat="46.08334" lon="3.72881">
        <ele>628.74</ele>
        <time>2013-04-06T14:35:14Z</time>
      </trkpt>
      <trkpt lat="46.08355" lon="3.72872">
        <ele>626.66</ele>
        <time>2013-04-06T14:35:18Z</time>
      </trkpt>
      <trkpt lat="46.08376" lon="3.72861">
        <ele>623.96</ele>
        <time>2013-04-06T14:35:22Z</time>
      </trkpt>
      <trkpt lat="46.08392" lon="3.72846">
        <ele>622.82</ele>
        <time>2013-04-06T14:35:25Z</time>
      </trkpt>
      <trkpt lat="46.08407" lon="3.72829">
        <ele>622.91</ele>
        <time>2013-04-06T14:35:28Z</time>
      </trkpt>
      <trkpt lat="46.08423" lon="3.72814">
        <ele>623.03</ele>
        <time>2013-04-06T14:35:31Z</time>
      </trkpt>
      <trkpt lat="46.08441" lon="3.72799">
        <ele>622.96</ele>
        <time>2013-04-06T14:35:35Z</time>
      </trkpt>
      <trkpt lat="46.08459" lon="3.72786">
        <ele>623.8</ele>
        <time>2013-04-06T14:35:39Z</time>
      </trkpt>
      <trkpt lat="46.08478" lon="3.72776">
        <ele>624.37</ele>
        <time>2013-04-06T14:35:44Z</time>
      </trkpt>
      <trkpt lat="46.08496" lon="3.72769">
        <ele>624.52</ele>
        <time>2013-04-06T14:35:50Z</time>
      </trkpt>
      <trkpt lat="46.08516" lon="3.72767">
        <ele>625.23</ele>
        <time>2013-04-06T14:35:56Z</time>
      </trkpt>
      <trkpt lat="46.08536" lon="3.72758">
        <ele>625.5</ele>
        <time>2013-04-06T14:36:02Z</time>
      </trkpt>
      <trkpt lat="46.08555" lon="3.72754">
        <ele>625.54</ele>
        <time>2013-04-06T14:36:08Z</time>
      </trkpt>
      <trkpt lat="46.0858" lon="3.72756">
        <ele>625.55</ele>
        <time>2013-04-06T14:36:15Z</time>
      </trkpt>
      <trkpt lat="46.08604" lon="3.72752">
        <ele>625.3</ele>
        <time>2013-04-06T14:36:21Z</time>
      </trkpt>
      <trkpt lat="46.08617" lon="3.7272">
        <ele>623.88</ele>
        <time>2013-04-06T14:36:32Z</time>
      </trkpt>
      <trkpt lat="46.08606" lon="3.72688">
        <ele>629.63</ele>
        <time>2013-04-06T14:37:02Z</time>
      </trkpt>
      <trkpt lat="46.08614" lon="3.72662">
        <ele>630.53</ele>
        <time>2013-04-06T14:37:15Z</time>
      </trkpt>
      <trkpt lat="46.08612" lon="3.72636">
        <ele>634.17</ele>
        <time>2013-04-06T14:39:27Z</time>
      </trkpt>
      <trkpt lat="46.08621" lon="3.72612">
        <ele>635.49</ele>
        <time>2013-04-06T14:39:38Z</time>
      </trkpt>
      <trkpt lat="46.08637" lon="3.726">
        <ele>636.55</ele>
        <time>2013-04-06T14:40:34Z</time>
      </trkpt>
      <trkpt lat="46.08633" lon="3.72627">
        <ele>638.55</ele>
        <time>2013-04-06T14:42:38Z</time>
      </trkpt>
      <trkpt lat="46.0864" lon="3.72651">
        <ele>637.58</ele>
        <time>2013-04-06T14:43:00Z</time>
      </trkpt>
      <trkpt lat="46.08646" lon="3.72625">
        <ele>638.42</ele>
        <time>2013-04-06T14:43:25Z</time>
      </trkpt>
      <trkpt lat="46.08658" lon="3.72604">
        <ele>638.29</ele>
        <time>2013-04-06T14:43:33Z</time>
      </trkpt>
      <trkpt lat="46.08672" lon="3.72587">
        <ele>637.07</ele>
        <time>2013-04-06T14:43:40Z</time>
      </trkpt>
      <trkpt lat="46.08688" lon="3.72574">
        <ele>636.03</ele>
        <time>2013-04-06T14:43:44Z</time>
      </trkpt>
      <trkpt lat="46.08706" lon="3.72561">
        <ele>634.98</ele>
        <time>2013-04-06T14:43:49Z</time>
      </trkpt>
      <trkpt lat="46.08722" lon="3.72548">
        <ele>633.17</ele>
        <time>2013-04-06T14:43:56Z</time>
      </trkpt>
      <trkpt lat="46.08736" lon="3.72531">
        <ele>631.35</ele>
        <time>2013-04-06T14:44:04Z</time>
      </trkpt>
      <trkpt lat="46.08753" lon="3.72516">
        <ele>630.74</ele>
        <time>2013-04-06T14:44:09Z</time>
      </trkpt>
      <trkpt lat="46.08768" lon="3.72501">
        <ele>629.59</ele>
        <time>2013-04-06T14:44:14Z</time>
      </trkpt>
      <trkpt lat="46.08782" lon="3.72484">
        <ele>628.22</ele>
        <time>2013-04-06T14:44:19Z</time>
      </trkpt>
      <trkpt lat="46.08798" lon="3.72467">
        <ele>626.41</ele>
        <time>2013-04-06T14:44:25Z</time>
      </trkpt>
      <trkpt lat="46.0881" lon="3.72443">
        <ele>624.06</ele>
        <time>2013-04-06T14:44:31Z</time>
      </trkpt>
      <trkpt lat="46.0882" lon="3.72417">
        <ele>622.14</ele>
        <time>2013-04-06T14:44:37Z</time>
      </trkpt>
      <trkpt lat="46.08828" lon="3.72391">
        <ele>621.91</ele>
        <time>2013-04-06T14:44:43Z</time>
      </trkpt>
      <trkpt lat="46.08839" lon="3.72368">
        <ele>623.77</ele>
        <time>2013-04-06T14:44:48Z</time>
      </trkpt>
      <trkpt lat="46.08853" lon="3.72344">
        <ele>626.64</ele>
        <time>2013-04-06T14:44:53Z</time>
      </trkpt>
      <trkpt lat="46.08865" lon="3.72325">
        <ele>628</ele>
        <time>2013-04-06T14:44:56Z</time>
      </trkpt>
      <trkpt lat="46.08876" lon="3.72303">
        <ele>629.33</ele>
        <time>2013-04-06T14:44:59Z</time>
      </trkpt>
      <trkpt lat="46.08886" lon="3.72263">
        <ele>634.41</ele>
        <time>2013-04-06T14:45:02Z</time>
      </trkpt>
      <trkpt lat="46.08892" lon="3.72233">
        <ele>640.06</ele>
        <time>2013-04-06T14:45:05Z</time>
      </trkpt>
      <trkpt lat="46.08905" lon="3.72209">
        <ele>643.81</ele>
        <time>2013-04-06T14:45:09Z</time>
      </trkpt>
      <trkpt lat="46.08913" lon="3.72185">
        <ele>644.5</ele>
        <time>2013-04-06T14:45:13Z</time>
      </trkpt>
      <trkpt lat="46.08912" lon="3.72158">
        <ele>641.67</ele>
        <time>2013-04-06T14:45:16Z</time>
      </trkpt>
      <trkpt lat="46.08907" lon="3.7213">
        <ele>638.85</ele>
        <time>2013-04-06T14:45:19Z</time>
      </trkpt>
      <trkpt lat="46.08914" lon="3.72104">
        <ele>636.35</ele>
        <time>2013-04-06T14:45:23Z</time>
      </trkpt>
      <trkpt lat="46.08929" lon="3.72089">
        <ele>633.61</ele>
        <time>2013-04-06T14:45:27Z</time>
      </trkpt>
      <trkpt lat="46.08943" lon="3.72072">
        <ele>629.57</ele>
        <time>2013-04-06T14:45:31Z</time>
      </trkpt>
      <trkpt lat="46.08956" lon="3.72052">
        <ele>627.27</ele>
        <time>2013-04-06T14:45:36Z</time>
      </trkpt>
      <trkpt lat="46.0897" lon="3.72031">
        <ele>626.47</ele>
        <time>2013-04-06T14:45:41Z</time>
      </trkpt>
      <trkpt lat="46.08981" lon="3.7201">
        <ele>625.41</ele>
        <time>2013-04-06T14:45:45Z</time>
      </trkpt>
      <trkpt lat="46.08992" lon="3.71986">
        <ele>624.82</ele>
        <time>2013-04-06T14:45:49Z</time>
      </trkpt>
      <trkpt lat="46.09007" lon="3.71962">
        <ele>624.64</ele>
        <time>2013-04-06T14:45:53Z</time>
      </trkpt>
      <trkpt lat="46.09019" lon="3.71941">
        <ele>624.34</ele>
        <time>2013-04-06T14:45:56Z</time>
      </trkpt>
      <trkpt lat="46.09028" lon="3.71915">
        <ele>623.8</ele>
        <time>2013-04-06T14:46:00Z</time>
      </trkpt>
      <trkpt lat="46.09036" lon="3.71889">
        <ele>622.85</ele>
        <time>2013-04-06T14:46:05Z</time>
      </trkpt>
      <trkpt lat="46.09032" lon="3.71853">
        <ele>622.56</ele>
        <time>2013-04-06T14:46:22Z</time>
      </trkpt>
      <trkpt lat="46.09036" lon="3.71825">
        <ele>622.3</ele>
        <time>2013-04-06T14:46:33Z</time>
      </trkpt>
      <trkpt lat="46.09041" lon="3.71797">
        <ele>621.38</ele>
        <time>2013-04-06T14:46:41Z</time>
      </trkpt>
      <trkpt lat="46.09047" lon="3.71769">
        <ele>621.33</ele>
        <time>2013-04-06T14:46:46Z</time>
      </trkpt>
      <trkpt lat="46.09052" lon="3.71743">
        <ele>621.48</ele>
        <time>2013-04-06T14:46:50Z</time>
      </trkpt>
      <trkpt lat="46.09064" lon="3.71718">
        <ele>620.95</ele>
        <time>2013-04-06T14:46:54Z</time>
      </trkpt>
      <trkpt lat="46.09074" lon="3.71694">
        <ele>620.68</ele>
        <time>2013-04-06T14:46:58Z</time>
      </trkpt>
      <trkpt lat="46.09078" lon="3.71664">
        <ele>620.33</ele>
        <time>2013-04-06T14:47:04Z</time>
      </trkpt>
      <trkpt lat="46.09078" lon="3.71632">
        <ele>619.66</ele>
        <time>2013-04-06T14:47:11Z</time>
      </trkpt>
      <trkpt lat="46.09058" lon="3.71606">
        <ele>618.44</ele>
        <time>2013-04-06T14:47:36Z</time>
      </trkpt>
      <trkpt lat="46.09039" lon="3.71595">
        <ele>617.05</ele>
        <time>2013-04-06T14:48:38Z</time>
      </trkpt>
      <trkpt lat="46.09016" lon="3.71583">
        <ele>618.2</ele>
        <time>2013-04-06T14:48:43Z</time>
      </trkpt>
      <trkpt lat="46.08996" lon="3.7157">
        <ele>618.44</ele>
        <time>2013-04-06T14:48:47Z</time>
      </trkpt>
      <trkpt lat="46.08974" lon="3.71567">
        <ele>618.53</ele>
        <time>2013-04-06T14:48:53Z</time>
      </trkpt>
      <trkpt lat="46.08952" lon="3.71565">
        <ele>617.05</ele>
        <time>2013-04-06T14:49:02Z</time>
      </trkpt>
      <trkpt lat="46.08935" lon="3.71552">
        <ele>615.69</ele>
        <time>2013-04-06T14:49:11Z</time>
      </trkpt>
      <trkpt lat="46.0892" lon="3.71535">
        <ele>616.38</ele>
        <time>2013-04-06T14:49:21Z</time>
      </trkpt>
      <trkpt lat="46.08906" lon="3.71516">
        <ele>615.87</ele>
        <time>2013-04-06T14:49:36Z</time>
      </trkpt>
      <trkpt lat="46.08892" lon="3.71497">
        <ele>615.58</ele>
        <time>2013-04-06T14:49:44Z</time>
      </trkpt>
      <trkpt lat="46.08878" lon="3.71473">
        <ele>616.38</ele>
        <time>2013-04-06T14:49:50Z</time>
      </trkpt>
      <trkpt lat="46.08871" lon="3.71447">
        <ele>616.51</ele>
        <time>2013-04-06T14:49:55Z</time>
      </trkpt>
      <trkpt lat="46.08868" lon="3.71419">
        <ele>616.8</ele>
        <time>2013-04-06T14:50:01Z</time>
      </trkpt>
      <trkpt lat="46.08867" lon="3.71392">
        <ele>617.04</ele>
        <time>2013-04-06T14:50:09Z</time>
      </trkpt>
      <trkpt lat="46.08868" lon="3.71361">
        <ele>615.92</ele>
        <time>2013-04-06T14:50:17Z</time>
      </trkpt>
      <trkpt lat="46.08864" lon="3.71336">
        <ele>614.66</ele>
        <time>2013-04-06T14:50:29Z</time>
      </trkpt>
      <trkpt lat="46.08865" lon="3.71308">
        <ele>614.55</ele>
        <time>2013-04-06T14:50:49Z</time>
      </trkpt>
      <trkpt lat="46.08876" lon="3.71286">
        <ele>613.8</ele>
        <time>2013-04-06T14:55:39Z</time>
      </trkpt>
      <trkpt lat="46.08878" lon="3.71261">
        <ele>612.98</ele>
        <time>2013-04-06T14:56:05Z</time>
      </trkpt>
      <trkpt lat="46.08865" lon="3.71241">
        <ele>611.55</ele>
        <time>2013-04-06T14:57:01Z</time>
      </trkpt>
      <trkpt lat="46.08847" lon="3.71235">
        <ele>612.45</ele>
        <time>2013-04-06T14:57:18Z</time>
      </trkpt>
      <trkpt lat="46.08829" lon="3.71233">
        <ele>613.54</ele>
        <time>2013-04-06T14:57:46Z</time>
      </trkpt>
      <trkpt lat="46.0881" lon="3.71233">
        <ele>613.55</ele>
        <time>2013-04-06T14:57:57Z</time>
      </trkpt>
      <trkpt lat="46.08791" lon="3.71231">
        <ele>614.53</ele>
        <time>2013-04-06T14:58:13Z</time>
      </trkpt>
      <trkpt lat="46.08773" lon="3.71228">
        <ele>614.55</ele>
        <time>2013-04-06T14:58:37Z</time>
      </trkpt>
      <trkpt lat="46.08755" lon="3.71228">
        <ele>613.15</ele>
        <time>2013-04-06T14:58:57Z</time>
      </trkpt>
      <trkpt lat="46.08737" lon="3.71235">
        <ele>610.7</ele>
        <time>2013-04-06T14:59:09Z</time>
      </trkpt>
      <trkpt lat="46.08717" lon="3.71241">
        <ele>609.66</ele>
        <time>2013-04-06T14:59:18Z</time>
      </trkpt>
      <trkpt lat="46.08698" lon="3.71239">
        <ele>608.54</ele>
        <time>2013-04-06T14:59:29Z</time>
      </trkpt>
      <trkpt lat="46.08682" lon="3.71226">
        <ele>606.39</ele>
        <time>2013-04-06T14:59:37Z</time>
      </trkpt>
      <trkpt lat="46.08664" lon="3.71216">
        <ele>604.84</ele>
        <time>2013-04-06T14:59:44Z</time>
      </trkpt>
      <trkpt lat="46.08644" lon="3.71203">
        <ele>604.12</ele>
        <time>2013-04-06T14:59:52Z</time>
      </trkpt>
      <trkpt lat="46.08625" lon="3.71192">
        <ele>605.41</ele>
        <time>2013-04-06T14:59:58Z</time>
      </trkpt>
      <trkpt lat="46.08607" lon="3.71183">
        <ele>607.45</ele>
        <time>2013-04-06T15:00:06Z</time>
      </trkpt>
      <trkpt lat="46.0859" lon="3.71173">
        <ele>609.91</ele>
        <time>2013-04-06T15:00:15Z</time>
      </trkpt>
      <trkpt lat="46.08572" lon="3.71164">
        <ele>612.29</ele>
        <time>2013-04-06T15:00:23Z</time>
      </trkpt>
      <trkpt lat="46.08555" lon="3.7114">
        <ele>616.26</ele>
        <time>2013-04-06T15:00:27Z</time>
      </trkpt>
      <trkpt lat="46.08545" lon="3.71119">
        <ele>619.32</ele>
        <time>2013-04-06T15:00:30Z</time>
      </trkpt>
      <trkpt lat="46.08535" lon="3.71093">
        <ele>619.58</ele>
        <time>2013-04-06T15:00:34Z</time>
      </trkpt>
      <trkpt lat="46.08532" lon="3.71065">
        <ele>618.74</ele>
        <time>2013-04-06T15:00:40Z</time>
      </trkpt>
      <trkpt lat="46.08515" lon="3.71057">
        <ele>618.6</ele>
        <time>2013-04-06T15:00:45Z</time>
      </trkpt>
      <trkpt lat="46.08494" lon="3.71053">
        <ele>618.56</ele>
        <time>2013-04-06T15:00:52Z</time>
      </trkpt>
      <trkpt lat="46.08472" lon="3.71053">
        <ele>617.73</ele>
        <time>2013-04-06T15:01:04Z</time>
      </trkpt>
      <trkpt lat="46.08451" lon="3.71042">
        <ele>618.48</ele>
        <time>2013-04-06T15:01:16Z</time>
      </trkpt>
      <trkpt lat="46.08433" lon="3.71033">
        <ele>617.79</ele>
        <time>2013-04-06T15:01:26Z</time>
      </trkpt>
      <trkpt lat="46.08415" lon="3.71018">
        <ele>617.58</ele>
        <time>2013-04-06T15:01:33Z</time>
      </trkpt>
      <trkpt lat="46.084" lon="3.70999">
        <ele>617.56</ele>
        <time>2013-04-06T15:01:39Z</time>
      </trkpt>
      <trkpt lat="46.08384" lon="3.70977">
        <ele>616.73</ele>
        <time>2013-04-06T15:01:43Z</time>
      </trkpt>
      <trkpt lat="46.08367" lon="3.70954">
        <ele>615.8</ele>
        <time>2013-04-06T15:01:46Z</time>
      </trkpt>
      <trkpt lat="46.08353" lon="3.70932">
        <ele>615.25</ele>
        <time>2013-04-06T15:01:48Z</time>
      </trkpt>
      <trkpt lat="46.08338" lon="3.70911">
        <ele>614.51</ele>
        <time>2013-04-06T15:01:50Z</time>
      </trkpt>
      <trkpt lat="46.08324" lon="3.70889">
        <ele>613.4</ele>
        <time>2013-04-06T15:01:52Z</time>
      </trkpt>
      <trkpt lat="46.08313" lon="3.70864">
        <ele>611.91</ele>
        <time>2013-04-06T15:01:54Z</time>
      </trkpt>
      <trkpt lat="46.08304" lon="3.7084">
        <ele>610.19</ele>
        <time>2013-04-06T15:01:56Z</time>
      </trkpt>
      <trkpt lat="46.08296" lon="3.70814">
        <ele>608.6</ele>
        <time>2013-04-06T15:01:58Z</time>
      </trkpt>
      <trkpt lat="46.08286" lon="3.70791">
        <ele>607.27</ele>
        <time>2013-04-06T15:02:00Z</time>
      </trkpt>
      <trkpt lat="46.08272" lon="3.70769">
        <ele>606.08</ele>
        <time>2013-04-06T15:02:02Z</time>
      </trkpt>
      <trkpt lat="46.08258" lon="3.7075">
        <ele>605.41</ele>
        <time>2013-04-06T15:02:04Z</time>
      </trkpt>
      <trkpt lat="46.08243" lon="3.70731">
        <ele>604.6</ele>
        <time>2013-04-06T15:02:06Z</time>
      </trkpt>
      <trkpt lat="46.08228" lon="3.70713">
        <ele>604.14</ele>
        <time>2013-04-06T15:02:08Z</time>
      </trkpt>
      <trkpt lat="46.08214" lon="3.70696">
        <ele>603.63</ele>
        <time>2013-04-06T15:02:10Z</time>
      </trkpt>
      <trkpt lat="46.08201" lon="3.70677">
        <ele>598.95</ele>
        <time>2013-04-06T15:05:18Z</time>
      </trkpt>
      <trkpt lat="46.08205" lon="3.70651">
        <ele>598.31</ele>
        <time>2013-04-06T15:13:47Z</time>
      </trkpt>
      <trkpt lat="46.08213" lon="3.70621">
        <ele>596.72</ele>
        <time>2013-04-06T15:13:52Z</time>
      </trkpt>
      <trkpt lat="46.08223" lon="3.70593">
        <ele>594.74</ele>
        <time>2013-04-06T15:14:01Z</time>
      </trkpt>
      <trkpt lat="46.08219" lon="3.70565">
        <ele>593.55</ele>
        <time>2013-04-06T15:14:10Z</time>
      </trkpt>
      <trkpt lat="46.0821" lon="3.7054">
        <ele>591.68</ele>
        <time>2013-04-06T15:14:14Z</time>
      </trkpt>
      <trkpt lat="46.08198" lon="3.70514">
        <ele>587.34</ele>
        <time>2013-04-06T15:14:17Z</time>
      </trkpt>
      <trkpt lat="46.08179" lon="3.7049">
        <ele>583.06</ele>
        <time>2013-04-06T15:14:20Z</time>
      </trkpt>
      <trkpt lat="46.08161" lon="3.7048">
        <ele>580.84</ele>
        <time>2013-04-06T15:14:22Z</time>
      </trkpt>
      <trkpt lat="46.0814" lon="3.70473">
        <ele>579.21</ele>
        <time>2013-04-06T15:14:24Z</time>
      </trkpt>
      <trkpt lat="46.08121" lon="3.70467">
        <ele>578.49</ele>
        <time>2013-04-06T15:14:26Z</time>
      </trkpt>
      <trkpt lat="46.08098" lon="3.70465">
        <ele>578.33</ele>
        <time>2013-04-06T15:14:28Z</time>
      </trkpt>
      <trkpt lat="46.08076" lon="3.7046">
        <ele>579.11</ele>
        <time>2013-04-06T15:14:30Z</time>
      </trkpt>
      <trkpt lat="46.08052" lon="3.7046">
        <ele>580.43</ele>
        <time>2013-04-06T15:14:32Z</time>
      </trkpt>
      <trkpt lat="46.0803" lon="3.70458">
        <ele>581.8</ele>
        <time>2013-04-06T15:14:34Z</time>
      </trkpt>
      <trkpt lat="46.08007" lon="3.7046">
        <ele>582.57</ele>
        <time>2013-04-06T15:14:36Z</time>
      </trkpt>
      <trkpt lat="46.07986" lon="3.70458">
        <ele>582.75</ele>
        <time>2013-04-06T15:14:38Z</time>
      </trkpt>
      <trkpt lat="46.07964" lon="3.70447">
        <ele>582.22</ele>
        <time>2013-04-06T15:14:40Z</time>
      </trkpt>
      <trkpt lat="46.07944" lon="3.70435">
        <ele>581.68</ele>
        <time>2013-04-06T15:14:42Z</time>
      </trkpt>
      <trkpt lat="46.07925" lon="3.7042">
        <ele>580.5</ele>
        <time>2013-04-06T15:14:44Z</time>
      </trkpt>
      <trkpt lat="46.07907" lon="3.70409">
        <ele>578.96</ele>
        <time>2013-04-06T15:14:46Z</time>
      </trkpt>
      <trkpt lat="46.07883" lon="3.70392">
        <ele>576.88</ele>
        <time>2013-04-06T15:14:49Z</time>
      </trkpt>
      <trkpt lat="46.07863" lon="3.70381">
        <ele>575.61</ele>
        <time>2013-04-06T15:14:51Z</time>
      </trkpt>
      <trkpt lat="46.07843" lon="3.70372">
        <ele>574.27</ele>
        <time>2013-04-06T15:14:53Z</time>
      </trkpt>
      <trkpt lat="46.07823" lon="3.7037">
        <ele>572.83</ele>
        <time>2013-04-06T15:14:55Z</time>
      </trkpt>
      <trkpt lat="46.07803" lon="3.70372">
        <ele>571.4</ele>
        <time>2013-04-06T15:14:57Z</time>
      </trkpt>
      <trkpt lat="46.07785" lon="3.70383">
        <ele>569.9</ele>
        <time>2013-04-06T15:14:59Z</time>
      </trkpt>
      <trkpt lat="46.07767" lon="3.70396">
        <ele>568.63</ele>
        <time>2013-04-06T15:15:01Z</time>
      </trkpt>
      <trkpt lat="46.07746" lon="3.70402">
        <ele>567.28</ele>
        <time>2013-04-06T15:15:03Z</time>
      </trkpt>
      <trkpt lat="46.07724" lon="3.70404">
        <ele>565.84</ele>
        <time>2013-04-06T15:15:05Z</time>
      </trkpt>
      <trkpt lat="46.07702" lon="3.70398">
        <ele>564.59</ele>
        <time>2013-04-06T15:15:07Z</time>
      </trkpt>
      <trkpt lat="46.07685" lon="3.70379">
        <ele>563.45</ele>
        <time>2013-04-06T15:15:09Z</time>
      </trkpt>
      <trkpt lat="46.0767" lon="3.70353">
        <ele>561.91</ele>
        <time>2013-04-06T15:15:12Z</time>
      </trkpt>
      <trkpt lat="46.07663" lon="3.70319">
        <ele>560.3</ele>
        <time>2013-04-06T15:15:15Z</time>
      </trkpt>
      <trkpt lat="46.07666" lon="3.70293">
        <ele>559.04</ele>
        <time>2013-04-06T15:15:17Z</time>
      </trkpt>
      <trkpt lat="46.07676" lon="3.70265">
        <ele>555.64</ele>
        <time>2013-04-06T15:15:19Z</time>
      </trkpt>
      <trkpt lat="46.07684" lon="3.70239">
        <ele>550.48</ele>
        <time>2013-04-06T15:15:21Z</time>
      </trkpt>
      <trkpt lat="46.07696" lon="3.70209">
        <ele>542.1</ele>
        <time>2013-04-06T15:15:24Z</time>
      </trkpt>
      <trkpt lat="46.07702" lon="3.70183">
        <ele>534.88</ele>
        <time>2013-04-06T15:15:27Z</time>
      </trkpt>
      <trkpt lat="46.07702" lon="3.70151">
        <ele>528.5</ele>
        <time>2013-04-06T15:15:31Z</time>
      </trkpt>
      <trkpt lat="46.07691" lon="3.70126">
        <ele>525.78</ele>
        <time>2013-04-06T15:15:34Z</time>
      </trkpt>
      <trkpt lat="46.07678" lon="3.701">
        <ele>524.06</ele>
        <time>2013-04-06T15:15:37Z</time>
      </trkpt>
      <trkpt lat="46.07666" lon="3.70076">
        <ele>522.61</ele>
        <time>2013-04-06T15:15:40Z</time>
      </trkpt>
      <trkpt lat="46.07653" lon="3.70055">
        <ele>521.17</ele>
        <time>2013-04-06T15:15:43Z</time>
      </trkpt>
      <trkpt lat="46.07639" lon="3.70031">
        <ele>519.99</ele>
        <time>2013-04-06T15:15:46Z</time>
      </trkpt>
      <trkpt lat="46.07628" lon="3.7001">
        <ele>519.36</ele>
        <time>2013-04-06T15:15:48Z</time>
      </trkpt>
      <trkpt lat="46.07613" lon="3.69982">
        <ele>517.88</ele>
        <time>2013-04-06T15:15:51Z</time>
      </trkpt>
      <trkpt lat="46.07599" lon="3.6995">
        <ele>515.85</ele>
        <time>2013-04-06T15:15:54Z</time>
      </trkpt>
      <trkpt lat="46.07583" lon="3.69926">
        <ele>513.25</ele>
        <time>2013-04-06T15:15:57Z</time>
      </trkpt>
      <trkpt lat="46.07566" lon="3.69911">
        <ele>510.68</ele>
        <time>2013-04-06T15:16:00Z</time>
      </trkpt>
      <trkpt lat="46.07542" lon="3.69902">
        <ele>509.45</ele>
        <time>2013-04-06T15:16:03Z</time>
      </trkpt>
      <trkpt lat="46.07521" lon="3.69905">
        <ele>508.81</ele>
        <time>2013-04-06T15:16:05Z</time>
      </trkpt>
      <trkpt lat="46.07503" lon="3.69915">
        <ele>507.82</ele>
        <time>2013-04-06T15:16:07Z</time>
      </trkpt>
      <trkpt lat="46.07483" lon="3.69924">
        <ele>506.83</ele>
        <time>2013-04-06T15:16:09Z</time>
      </trkpt>
      <trkpt lat="46.07462" lon="3.69935">
        <ele>505.58</ele>
        <time>2013-04-06T15:16:11Z</time>
      </trkpt>
      <trkpt lat="46.07442" lon="3.69945">
        <ele>504.01</ele>
        <time>2013-04-06T15:16:13Z</time>
      </trkpt>
      <trkpt lat="46.07422" lon="3.6996">
        <ele>502.25</ele>
        <time>2013-04-06T15:16:15Z</time>
      </trkpt>
      <trkpt lat="46.07404" lon="3.69975">
        <ele>500.82</ele>
        <time>2013-04-06T15:16:17Z</time>
      </trkpt>
      <trkpt lat="46.07385" lon="3.69986">
        <ele>498.89</ele>
        <time>2013-04-06T15:16:19Z</time>
      </trkpt>
      <trkpt lat="46.07366" lon="3.69997">
        <ele>496.74</ele>
        <time>2013-04-06T15:16:21Z</time>
      </trkpt>
      <trkpt lat="46.07346" lon="3.7001">
        <ele>494.66</ele>
        <time>2013-04-06T15:16:23Z</time>
      </trkpt>
      <trkpt lat="46.07328" lon="3.70023">
        <ele>493.05</ele>
        <time>2013-04-06T15:16:25Z</time>
      </trkpt>
      <trkpt lat="46.07309" lon="3.70035">
        <ele>491.27</ele>
        <time>2013-04-06T15:16:27Z</time>
      </trkpt>
      <trkpt lat="46.07291" lon="3.70048">
        <ele>489.83</ele>
        <time>2013-04-06T15:16:29Z</time>
      </trkpt>
      <trkpt lat="46.07271" lon="3.70061">
        <ele>488.58</ele>
        <time>2013-04-06T15:16:31Z</time>
      </trkpt>
      <trkpt lat="46.07253" lon="3.70074">
        <ele>487.7</ele>
        <time>2013-04-06T15:16:33Z</time>
      </trkpt>
      <trkpt lat="46.07236" lon="3.70085">
        <ele>486.76</ele>
        <time>2013-04-06T15:16:35Z</time>
      </trkpt>
      <trkpt lat="46.07219" lon="3.70098">
        <ele>486.23</ele>
        <time>2013-04-06T15:16:37Z</time>
      </trkpt>
      <trkpt lat="46.07201" lon="3.70108">
        <ele>485.68</ele>
        <time>2013-04-06T15:16:39Z</time>
      </trkpt>
      <trkpt lat="46.07178" lon="3.70123">
        <ele>485.03</ele>
        <time>2013-04-06T15:16:42Z</time>
      </trkpt>
      <trkpt lat="46.07155" lon="3.70138">
        <ele>483.93</ele>
        <time>2013-04-06T15:16:45Z</time>
      </trkpt>
      <trkpt lat="46.07133" lon="3.70153">
        <ele>482.88</ele>
        <time>2013-04-06T15:16:48Z</time>
      </trkpt>
      <trkpt lat="46.0711" lon="3.70164">
        <ele>482.11</ele>
        <time>2013-04-06T15:16:51Z</time>
      </trkpt>
      <trkpt lat="46.0709" lon="3.70173">
        <ele>481.21</ele>
        <time>2013-04-06T15:16:54Z</time>
      </trkpt>
      <trkpt lat="46.07068" lon="3.70181">
        <ele>480</ele>
        <time>2013-04-06T15:16:57Z</time>
      </trkpt>
      <trkpt lat="46.07047" lon="3.70188">
        <ele>478.91</ele>
        <time>2013-04-06T15:17:00Z</time>
      </trkpt>
      <trkpt lat="46.07028" lon="3.70194">
        <ele>478.13</ele>
        <time>2013-04-06T15:17:03Z</time>
      </trkpt>
      <trkpt lat="46.07009" lon="3.70198">
        <ele>477.8</ele>
        <time>2013-04-06T15:17:06Z</time>
      </trkpt>
      <trkpt lat="46.06986" lon="3.70203">
        <ele>476.95</ele>
        <time>2013-04-06T15:17:10Z</time>
      </trkpt>
      <trkpt lat="46.06968" lon="3.70205">
        <ele>476.72</ele>
        <time>2013-04-06T15:17:13Z</time>
      </trkpt>
      <trkpt lat="46.06949" lon="3.70207">
        <ele>476.62</ele>
        <time>2013-04-06T15:17:16Z</time>
      </trkpt>
      <trkpt lat="46.06931" lon="3.70211">
        <ele>477.02</ele>
        <time>2013-04-06T15:17:19Z</time>
      </trkpt>
      <trkpt lat="46.06909" lon="3.70214">
        <ele>477.96</ele>
        <time>2013-04-06T15:17:23Z</time>
      </trkpt>
      <trkpt lat="46.06888" lon="3.70218">
        <ele>478.94</ele>
        <time>2013-04-06T15:17:27Z</time>
      </trkpt>
      <trkpt lat="46.0687" lon="3.70218">
        <ele>479.36</ele>
        <time>2013-04-06T15:17:31Z</time>
      </trkpt>
    </trkseg>
  </trk>
</gpx>